<?xml version="1.0" encoding="UTF-8" standalone="no" ?>
<gpx xmlns="http://www.topografix.com/GPX/1/1" xmlns:xsi="http://www.w3.org/2001/XMLSchema-instance" xsi:schemaLocation="http://www.topografix.com/GPX/1/1 http://www.topografix.com/GPX/1/1/gpx.xsd" version="1.1" creator="VisuGPX - https://www.visugpx.com">
  <metadata>
    <name>rando saligney</name>
    <desc><![CDATA[Belle rando par un temps estival]]></desc>
  </metadata>
  <trk>
    <name><![CDATA[saligney2]]></name>
    <trkseg>
      <trkpt lat="47.21959" lon="5.64072">
        <ele>189.036377</ele>
        <time>2011-03-24T13:56:06Z</time>
      </trkpt>
      <trkpt lat="47.21955" lon="5.64075">
        <ele>191.920288</ele>
        <time>2011-03-24T13:56:18Z</time>
      </trkpt>
      <trkpt lat="47.21955" lon="5.64075">
        <ele>193.843018</ele>
        <time>2011-03-24T13:56:21Z</time>
      </trkpt>
      <trkpt lat="47.21954" lon="5.64075">
        <ele>197.20752</ele>
        <time>2011-03-24T13:56:26Z</time>
      </trkpt>
      <trkpt lat="47.21954" lon="5.64075">
        <ele>197.20752</ele>
        <time>2011-03-24T13:56:27Z</time>
      </trkpt>
      <trkpt lat="47.21954" lon="5.64074">
        <ele>200.572266</ele>
        <time>2011-03-24T13:56:34Z</time>
      </trkpt>
      <trkpt lat="47.21954" lon="5.64074">
        <ele>202.975464</ele>
        <time>2011-03-24T13:56:39Z</time>
      </trkpt>
      <trkpt lat="47.21953" lon="5.64074">
        <ele>204.41748</ele>
        <time>2011-03-24T13:56:43Z</time>
      </trkpt>
      <trkpt lat="47.21954" lon="5.64074">
        <ele>206.820679</ele>
        <time>2011-03-24T13:56:48Z</time>
      </trkpt>
      <trkpt lat="47.21954" lon="5.64072">
        <ele>210.185425</ele>
        <time>2011-03-24T13:57:01Z</time>
      </trkpt>
      <trkpt lat="47.21952" lon="5.64071">
        <ele>213.069336</ele>
        <time>2011-03-24T13:57:22Z</time>
      </trkpt>
      <trkpt lat="47.21952" lon="5.64071">
        <ele>216.43396</ele>
        <time>2011-03-24T13:57:59Z</time>
      </trkpt>
      <trkpt lat="47.21954" lon="5.64073">
        <ele>216.43396</ele>
        <time>2011-03-24T13:59:45Z</time>
      </trkpt>
      <trkpt lat="47.21963" lon="5.64087">
        <ele>217.395386</ele>
        <time>2011-03-24T14:00:00Z</time>
      </trkpt>
      <trkpt lat="47.21964" lon="5.64095">
        <ele>217.875977</ele>
        <time>2011-03-24T14:00:06Z</time>
      </trkpt>
      <trkpt lat="47.21966" lon="5.64117">
        <ele>219.798584</ele>
        <time>2011-03-24T14:00:20Z</time>
      </trkpt>
      <trkpt lat="47.21966" lon="5.64123">
        <ele>220.279175</ele>
        <time>2011-03-24T14:00:24Z</time>
      </trkpt>
      <trkpt lat="47.21969" lon="5.64163">
        <ele>222.682495</ele>
        <time>2011-03-24T14:00:49Z</time>
      </trkpt>
      <trkpt lat="47.21972" lon="5.6418">
        <ele>224.124512</ele>
        <time>2011-03-24T14:01:00Z</time>
      </trkpt>
      <trkpt lat="47.21974" lon="5.64189">
        <ele>224.605225</ele>
        <time>2011-03-24T14:01:06Z</time>
      </trkpt>
      <trkpt lat="47.21973" lon="5.64197">
        <ele>225.085938</ele>
        <time>2011-03-24T14:01:11Z</time>
      </trkpt>
      <trkpt lat="47.21975" lon="5.64209">
        <ele>225.566528</ele>
        <time>2011-03-24T14:01:19Z</time>
      </trkpt>
      <trkpt lat="47.21975" lon="5.64228">
        <ele>227.008545</ele>
        <time>2011-03-24T14:01:32Z</time>
      </trkpt>
      <trkpt lat="47.21975" lon="5.64236">
        <ele>227.969727</ele>
        <time>2011-03-24T14:01:37Z</time>
      </trkpt>
      <trkpt lat="47.21975" lon="5.64243">
        <ele>228.450439</ele>
        <time>2011-03-24T14:01:42Z</time>
      </trkpt>
      <trkpt lat="47.21974" lon="5.64248">
        <ele>228.450439</ele>
        <time>2011-03-24T14:01:45Z</time>
      </trkpt>
      <trkpt lat="47.21974" lon="5.64285">
        <ele>230.373047</ele>
        <time>2011-03-24T14:02:09Z</time>
      </trkpt>
      <trkpt lat="47.21973" lon="5.64309">
        <ele>231.334351</ele>
        <time>2011-03-24T14:02:24Z</time>
      </trkpt>
      <trkpt lat="47.21976" lon="5.64339">
        <ele>232.776489</ele>
        <time>2011-03-24T14:02:41Z</time>
      </trkpt>
      <trkpt lat="47.2198" lon="5.64364">
        <ele>233.737671</ele>
        <time>2011-03-24T14:02:57Z</time>
      </trkpt>
      <trkpt lat="47.21987" lon="5.64387">
        <ele>234.699097</ele>
        <time>2011-03-24T14:03:12Z</time>
      </trkpt>
      <trkpt lat="47.22005" lon="5.64415">
        <ele>236.140991</ele>
        <time>2011-03-24T14:03:35Z</time>
      </trkpt>
      <trkpt lat="47.22025" lon="5.64432">
        <ele>237.102295</ele>
        <time>2011-03-24T14:03:55Z</time>
      </trkpt>
      <trkpt lat="47.22049" lon="5.64455">
        <ele>237.582886</ele>
        <time>2011-03-24T14:04:17Z</time>
      </trkpt>
      <trkpt lat="47.22063" lon="5.64482">
        <ele>237.582886</ele>
        <time>2011-03-24T14:04:37Z</time>
      </trkpt>
      <trkpt lat="47.22079" lon="5.64521">
        <ele>238.063599</ele>
        <time>2011-03-24T14:05:02Z</time>
      </trkpt>
      <trkpt lat="47.22088" lon="5.64529">
        <ele>238.544312</ele>
        <time>2011-03-24T14:05:17Z</time>
      </trkpt>
      <trkpt lat="47.22095" lon="5.64524">
        <ele>238.544312</ele>
        <time>2011-03-24T14:05:25Z</time>
      </trkpt>
      <trkpt lat="47.2211" lon="5.64511">
        <ele>238.544312</ele>
        <time>2011-03-24T14:05:46Z</time>
      </trkpt>
      <trkpt lat="47.22125" lon="5.64497">
        <ele>239.024902</ele>
        <time>2011-03-24T14:06:04Z</time>
      </trkpt>
      <trkpt lat="47.22135" lon="5.64486">
        <ele>238.544312</ele>
        <time>2011-03-24T14:06:19Z</time>
      </trkpt>
      <trkpt lat="47.22144" lon="5.64478">
        <ele>239.505493</ele>
        <time>2011-03-24T14:06:28Z</time>
      </trkpt>
      <trkpt lat="47.22161" lon="5.64498">
        <ele>241.428223</ele>
        <time>2011-03-24T14:06:47Z</time>
      </trkpt>
      <trkpt lat="47.22181" lon="5.64527">
        <ele>243.35083</ele>
        <time>2011-03-24T14:07:11Z</time>
      </trkpt>
      <trkpt lat="47.22184" lon="5.6453">
        <ele>243.35083</ele>
        <time>2011-03-24T14:07:14Z</time>
      </trkpt>
      <trkpt lat="47.22189" lon="5.64533">
        <ele>243.831543</ele>
        <time>2011-03-24T14:07:19Z</time>
      </trkpt>
      <trkpt lat="47.22196" lon="5.64538">
        <ele>244.312256</ele>
        <time>2011-03-24T14:07:26Z</time>
      </trkpt>
      <trkpt lat="47.22199" lon="5.64537">
        <ele>244.312256</ele>
        <time>2011-03-24T14:07:28Z</time>
      </trkpt>
      <trkpt lat="47.22205" lon="5.64541">
        <ele>245.273438</ele>
        <time>2011-03-24T14:07:34Z</time>
      </trkpt>
      <trkpt lat="47.2222" lon="5.64548">
        <ele>247.196045</ele>
        <time>2011-03-24T14:07:48Z</time>
      </trkpt>
      <trkpt lat="47.22226" lon="5.64549">
        <ele>248.157593</ele>
        <time>2011-03-24T14:07:54Z</time>
      </trkpt>
      <trkpt lat="47.22229" lon="5.64551">
        <ele>248.157593</ele>
        <time>2011-03-24T14:07:57Z</time>
      </trkpt>
      <trkpt lat="47.22246" lon="5.64561">
        <ele>250.560791</ele>
        <time>2011-03-24T14:08:12Z</time>
      </trkpt>
      <trkpt lat="47.2226" lon="5.64567">
        <ele>251.041382</ele>
        <time>2011-03-24T14:08:24Z</time>
      </trkpt>
      <trkpt lat="47.22269" lon="5.6457">
        <ele>252.483398</ele>
        <time>2011-03-24T14:08:36Z</time>
      </trkpt>
      <trkpt lat="47.2228" lon="5.64564">
        <ele>253.925415</ele>
        <time>2011-03-24T14:08:47Z</time>
      </trkpt>
      <trkpt lat="47.22295" lon="5.64563">
        <ele>254.886597</ele>
        <time>2011-03-24T14:09:01Z</time>
      </trkpt>
      <trkpt lat="47.22307" lon="5.64563">
        <ele>255.848022</ele>
        <time>2011-03-24T14:09:12Z</time>
      </trkpt>
      <trkpt lat="47.22323" lon="5.64566">
        <ele>257.290039</ele>
        <time>2011-03-24T14:09:25Z</time>
      </trkpt>
      <trkpt lat="47.22338" lon="5.64571">
        <ele>259.212646</ele>
        <time>2011-03-24T14:09:41Z</time>
      </trkpt>
      <trkpt lat="47.22354" lon="5.64575">
        <ele>261.135254</ele>
        <time>2011-03-24T14:09:59Z</time>
      </trkpt>
      <trkpt lat="47.22372" lon="5.64585">
        <ele>264.019287</ele>
        <time>2011-03-24T14:10:18Z</time>
      </trkpt>
      <trkpt lat="47.22384" lon="5.64597">
        <ele>265.941895</ele>
        <time>2011-03-24T14:10:34Z</time>
      </trkpt>
      <trkpt lat="47.22401" lon="5.64609">
        <ele>268.345093</ele>
        <time>2011-03-24T14:10:52Z</time>
      </trkpt>
      <trkpt lat="47.22415" lon="5.64622">
        <ele>270.748413</ele>
        <time>2011-03-24T14:11:10Z</time>
      </trkpt>
      <trkpt lat="47.22429" lon="5.64636">
        <ele>272.671143</ele>
        <time>2011-03-24T14:11:26Z</time>
      </trkpt>
      <trkpt lat="47.22438" lon="5.64645">
        <ele>274.59375</ele>
        <time>2011-03-24T14:11:37Z</time>
      </trkpt>
      <trkpt lat="47.22449" lon="5.64655">
        <ele>276.516357</ele>
        <time>2011-03-24T14:11:52Z</time>
      </trkpt>
      <trkpt lat="47.22452" lon="5.64659">
        <ele>276.99707</ele>
        <time>2011-03-24T14:11:56Z</time>
      </trkpt>
      <trkpt lat="47.22464" lon="5.64671">
        <ele>278.919678</ele>
        <time>2011-03-24T14:12:11Z</time>
      </trkpt>
      <trkpt lat="47.22476" lon="5.64681">
        <ele>280.842407</ele>
        <time>2011-03-24T14:12:25Z</time>
      </trkpt>
      <trkpt lat="47.22486" lon="5.64688">
        <ele>282.284302</ele>
        <time>2011-03-24T14:12:39Z</time>
      </trkpt>
      <trkpt lat="47.22504" lon="5.64698">
        <ele>284.687622</ele>
        <time>2011-03-24T14:12:57Z</time>
      </trkpt>
      <trkpt lat="47.22518" lon="5.64702">
        <ele>286.610229</ele>
        <time>2011-03-24T14:13:12Z</time>
      </trkpt>
      <trkpt lat="47.22541" lon="5.64711">
        <ele>289.494141</ele>
        <time>2011-03-24T14:13:35Z</time>
      </trkpt>
      <trkpt lat="47.22558" lon="5.6472">
        <ele>291.897461</ele>
        <time>2011-03-24T14:13:54Z</time>
      </trkpt>
      <trkpt lat="47.22578" lon="5.64719">
        <ele>293.820068</ele>
        <time>2011-03-24T14:14:14Z</time>
      </trkpt>
      <trkpt lat="47.22596" lon="5.64722">
        <ele>296.223511</ele>
        <time>2011-03-24T14:14:32Z</time>
      </trkpt>
      <trkpt lat="47.22616" lon="5.64731">
        <ele>298.626709</ele>
        <time>2011-03-24T14:14:53Z</time>
      </trkpt>
      <trkpt lat="47.22623" lon="5.64734">
        <ele>299.588013</ele>
        <time>2011-03-24T14:15:00Z</time>
      </trkpt>
      <trkpt lat="47.22631" lon="5.64737">
        <ele>300.549316</ele>
        <time>2011-03-24T14:15:08Z</time>
      </trkpt>
      <trkpt lat="47.22644" lon="5.64746">
        <ele>302.471924</ele>
        <time>2011-03-24T14:15:23Z</time>
      </trkpt>
      <trkpt lat="47.22645" lon="5.64746">
        <ele>302.471924</ele>
        <time>2011-03-24T14:15:24Z</time>
      </trkpt>
      <trkpt lat="47.22664" lon="5.64754">
        <ele>304.875244</ele>
        <time>2011-03-24T14:15:41Z</time>
      </trkpt>
      <trkpt lat="47.22679" lon="5.64762">
        <ele>306.797852</ele>
        <time>2011-03-24T14:15:58Z</time>
      </trkpt>
      <trkpt lat="47.22697" lon="5.6477">
        <ele>308.720459</ele>
        <time>2011-03-24T14:16:15Z</time>
      </trkpt>
      <trkpt lat="47.22717" lon="5.6478">
        <ele>311.123779</ele>
        <time>2011-03-24T14:16:35Z</time>
      </trkpt>
      <trkpt lat="47.22732" lon="5.64789">
        <ele>312.565796</ele>
        <time>2011-03-24T14:16:51Z</time>
      </trkpt>
      <trkpt lat="47.22755" lon="5.64802">
        <ele>314.488403</ele>
        <time>2011-03-24T14:17:12Z</time>
      </trkpt>
      <trkpt lat="47.22773" lon="5.64813">
        <ele>315.93042</ele>
        <time>2011-03-24T14:17:30Z</time>
      </trkpt>
      <trkpt lat="47.22792" lon="5.64824">
        <ele>317.372437</ele>
        <time>2011-03-24T14:17:49Z</time>
      </trkpt>
      <trkpt lat="47.22794" lon="5.64826">
        <ele>317.853027</ele>
        <time>2011-03-24T14:18:07Z</time>
      </trkpt>
      <trkpt lat="47.22796" lon="5.64826">
        <ele>319.775635</ele>
        <time>2011-03-24T14:22:57Z</time>
      </trkpt>
      <trkpt lat="47.22795" lon="5.64826">
        <ele>320.737061</ele>
        <time>2011-03-24T14:25:33Z</time>
      </trkpt>
      <trkpt lat="47.22812" lon="5.64853">
        <ele>322.659668</ele>
        <time>2011-03-24T14:25:53Z</time>
      </trkpt>
      <trkpt lat="47.22828" lon="5.64869">
        <ele>324.101563</ele>
        <time>2011-03-24T14:26:09Z</time>
      </trkpt>
      <trkpt lat="47.22845" lon="5.64889">
        <ele>325.062988</ele>
        <time>2011-03-24T14:26:29Z</time>
      </trkpt>
      <trkpt lat="47.22855" lon="5.64901">
        <ele>325.543579</ele>
        <time>2011-03-24T14:26:40Z</time>
      </trkpt>
      <trkpt lat="47.2287" lon="5.64915">
        <ele>326.02417</ele>
        <time>2011-03-24T14:26:54Z</time>
      </trkpt>
      <trkpt lat="47.22872" lon="5.64915">
        <ele>326.02417</ele>
        <time>2011-03-24T14:26:56Z</time>
      </trkpt>
      <trkpt lat="47.22884" lon="5.64928">
        <ele>326.02417</ele>
        <time>2011-03-24T14:27:14Z</time>
      </trkpt>
      <trkpt lat="47.22875" lon="5.64947">
        <ele>327.466187</ele>
        <time>2011-03-24T14:27:34Z</time>
      </trkpt>
      <trkpt lat="47.22874" lon="5.64967">
        <ele>327.466187</ele>
        <time>2011-03-24T14:27:45Z</time>
      </trkpt>
      <trkpt lat="47.2288" lon="5.65007">
        <ele>327.466187</ele>
        <time>2011-03-24T14:28:09Z</time>
      </trkpt>
      <trkpt lat="47.22895" lon="5.65018">
        <ele>326.985596</ele>
        <time>2011-03-24T14:28:25Z</time>
      </trkpt>
      <trkpt lat="47.22913" lon="5.6503">
        <ele>326.504883</ele>
        <time>2011-03-24T14:28:46Z</time>
      </trkpt>
      <trkpt lat="47.22934" lon="5.65039">
        <ele>325.543579</ele>
        <time>2011-03-24T14:29:03Z</time>
      </trkpt>
      <trkpt lat="47.22947" lon="5.65045">
        <ele>325.062988</ele>
        <time>2011-03-24T14:29:12Z</time>
      </trkpt>
      <trkpt lat="47.2295" lon="5.65046">
        <ele>325.062988</ele>
        <time>2011-03-24T14:29:14Z</time>
      </trkpt>
      <trkpt lat="47.22956" lon="5.65043">
        <ele>325.543579</ele>
        <time>2011-03-24T14:29:20Z</time>
      </trkpt>
      <trkpt lat="47.22963" lon="5.65039">
        <ele>325.062988</ele>
        <time>2011-03-24T14:29:27Z</time>
      </trkpt>
      <trkpt lat="47.22984" lon="5.65048">
        <ele>324.582275</ele>
        <time>2011-03-24T14:29:46Z</time>
      </trkpt>
      <trkpt lat="47.23007" lon="5.6506">
        <ele>323.140381</ele>
        <time>2011-03-24T14:30:07Z</time>
      </trkpt>
      <trkpt lat="47.23034" lon="5.65072">
        <ele>321.698364</ele>
        <time>2011-03-24T14:30:31Z</time>
      </trkpt>
      <trkpt lat="47.23043" lon="5.65082">
        <ele>320.256348</ele>
        <time>2011-03-24T14:30:47Z</time>
      </trkpt>
      <trkpt lat="47.23056" lon="5.6509">
        <ele>319.295044</ele>
        <time>2011-03-24T14:31:00Z</time>
      </trkpt>
      <trkpt lat="47.23075" lon="5.651">
        <ele>316.891724</ele>
        <time>2011-03-24T14:31:20Z</time>
      </trkpt>
      <trkpt lat="47.23086" lon="5.65103">
        <ele>315.449829</ele>
        <time>2011-03-24T14:31:31Z</time>
      </trkpt>
      <trkpt lat="47.23093" lon="5.65085">
        <ele>314.969116</ele>
        <time>2011-03-24T14:31:46Z</time>
      </trkpt>
      <trkpt lat="47.23109" lon="5.65066">
        <ele>314.007813</ele>
        <time>2011-03-24T14:32:05Z</time>
      </trkpt>
      <trkpt lat="47.23115" lon="5.65059">
        <ele>314.007813</ele>
        <time>2011-03-24T14:32:10Z</time>
      </trkpt>
      <trkpt lat="47.23135" lon="5.65044">
        <ele>313.046509</ele>
        <time>2011-03-24T14:32:28Z</time>
      </trkpt>
      <trkpt lat="47.23136" lon="5.65043">
        <ele>312.565796</ele>
        <time>2011-03-24T14:32:30Z</time>
      </trkpt>
      <trkpt lat="47.23152" lon="5.65035">
        <ele>311.123779</ele>
        <time>2011-03-24T14:32:43Z</time>
      </trkpt>
      <trkpt lat="47.23168" lon="5.65023">
        <ele>309.201172</ele>
        <time>2011-03-24T14:32:57Z</time>
      </trkpt>
      <trkpt lat="47.2317" lon="5.65019">
        <ele>308.720459</ele>
        <time>2011-03-24T14:33:00Z</time>
      </trkpt>
      <trkpt lat="47.23172" lon="5.65015">
        <ele>308.239868</ele>
        <time>2011-03-24T14:33:03Z</time>
      </trkpt>
      <trkpt lat="47.23182" lon="5.65014">
        <ele>306.797852</ele>
        <time>2011-03-24T14:33:13Z</time>
      </trkpt>
      <trkpt lat="47.23187" lon="5.65018">
        <ele>305.83667</ele>
        <time>2011-03-24T14:33:18Z</time>
      </trkpt>
      <trkpt lat="47.23209" lon="5.65032">
        <ele>303.433228</ele>
        <time>2011-03-24T14:33:36Z</time>
      </trkpt>
      <trkpt lat="47.23211" lon="5.65033">
        <ele>302.952515</ele>
        <time>2011-03-24T14:33:38Z</time>
      </trkpt>
      <trkpt lat="47.23231" lon="5.65044">
        <ele>300.549316</ele>
        <time>2011-03-24T14:33:56Z</time>
      </trkpt>
      <trkpt lat="47.23252" lon="5.65054">
        <ele>297.665405</ele>
        <time>2011-03-24T14:34:15Z</time>
      </trkpt>
      <trkpt lat="47.23272" lon="5.65067">
        <ele>294.300781</ele>
        <time>2011-03-24T14:34:31Z</time>
      </trkpt>
      <trkpt lat="47.23292" lon="5.65085">
        <ele>290.936157</ele>
        <time>2011-03-24T14:34:48Z</time>
      </trkpt>
      <trkpt lat="47.23311" lon="5.6509">
        <ele>288.052246</ele>
        <time>2011-03-24T14:35:04Z</time>
      </trkpt>
      <trkpt lat="47.23322" lon="5.65097">
        <ele>285.168213</ele>
        <time>2011-03-24T14:35:20Z</time>
      </trkpt>
      <trkpt lat="47.2333" lon="5.65106">
        <ele>281.803589</ele>
        <time>2011-03-24T14:35:35Z</time>
      </trkpt>
      <trkpt lat="47.23341" lon="5.65113">
        <ele>278.438965</ele>
        <time>2011-03-24T14:35:48Z</time>
      </trkpt>
      <trkpt lat="47.23353" lon="5.65121">
        <ele>275.074463</ele>
        <time>2011-03-24T14:36:00Z</time>
      </trkpt>
      <trkpt lat="47.23366" lon="5.6513">
        <ele>272.19043</ele>
        <time>2011-03-24T14:36:15Z</time>
      </trkpt>
      <trkpt lat="47.23389" lon="5.65142">
        <ele>269.306519</ele>
        <time>2011-03-24T14:36:34Z</time>
      </trkpt>
      <trkpt lat="47.23402" lon="5.65153">
        <ele>266.422485</ele>
        <time>2011-03-24T14:36:50Z</time>
      </trkpt>
      <trkpt lat="47.23413" lon="5.65161">
        <ele>263.057861</ele>
        <time>2011-03-24T14:37:05Z</time>
      </trkpt>
      <trkpt lat="47.23428" lon="5.65171">
        <ele>260.17395</ele>
        <time>2011-03-24T14:37:21Z</time>
      </trkpt>
      <trkpt lat="47.23448" lon="5.65183">
        <ele>257.770752</ele>
        <time>2011-03-24T14:37:37Z</time>
      </trkpt>
      <trkpt lat="47.23461" lon="5.65189">
        <ele>256.328735</ele>
        <time>2011-03-24T14:37:49Z</time>
      </trkpt>
      <trkpt lat="47.23468" lon="5.65194">
        <ele>255.848022</ele>
        <time>2011-03-24T14:37:55Z</time>
      </trkpt>
      <trkpt lat="47.23479" lon="5.65205">
        <ele>254.406006</ele>
        <time>2011-03-24T14:38:07Z</time>
      </trkpt>
      <trkpt lat="47.23499" lon="5.65226">
        <ele>251.522095</ele>
        <time>2011-03-24T14:38:31Z</time>
      </trkpt>
      <trkpt lat="47.23505" lon="5.65232">
        <ele>250.560791</ele>
        <time>2011-03-24T14:38:38Z</time>
      </trkpt>
      <trkpt lat="47.23503" lon="5.65242">
        <ele>251.041382</ele>
        <time>2011-03-24T14:38:45Z</time>
      </trkpt>
      <trkpt lat="47.23486" lon="5.65257">
        <ele>252.963989</ele>
        <time>2011-03-24T14:39:01Z</time>
      </trkpt>
      <trkpt lat="47.23469" lon="5.65278">
        <ele>252.963989</ele>
        <time>2011-03-24T14:39:15Z</time>
      </trkpt>
      <trkpt lat="47.23461" lon="5.65291">
        <ele>251.522095</ele>
        <time>2011-03-24T14:39:25Z</time>
      </trkpt>
      <trkpt lat="47.23458" lon="5.65291">
        <ele>251.522095</ele>
        <time>2011-03-24T14:39:27Z</time>
      </trkpt>
      <trkpt lat="47.23446" lon="5.65301">
        <ele>251.522095</ele>
        <time>2011-03-24T14:39:40Z</time>
      </trkpt>
      <trkpt lat="47.23434" lon="5.65305">
        <ele>252.963989</ele>
        <time>2011-03-24T14:39:52Z</time>
      </trkpt>
      <trkpt lat="47.23417" lon="5.65319">
        <ele>254.886597</ele>
        <time>2011-03-24T14:40:09Z</time>
      </trkpt>
      <trkpt lat="47.23394" lon="5.65354">
        <ele>255.848022</ele>
        <time>2011-03-24T14:40:30Z</time>
      </trkpt>
      <trkpt lat="47.23381" lon="5.65372">
        <ele>256.809326</ele>
        <time>2011-03-24T14:40:45Z</time>
      </trkpt>
      <trkpt lat="47.23363" lon="5.65397">
        <ele>257.770752</ele>
        <time>2011-03-24T14:41:04Z</time>
      </trkpt>
      <trkpt lat="47.2335" lon="5.65415">
        <ele>258.731934</ele>
        <time>2011-03-24T14:41:19Z</time>
      </trkpt>
      <trkpt lat="47.23343" lon="5.65426">
        <ele>258.731934</ele>
        <time>2011-03-24T14:41:26Z</time>
      </trkpt>
      <trkpt lat="47.23342" lon="5.65429">
        <ele>258.731934</ele>
        <time>2011-03-24T14:41:29Z</time>
      </trkpt>
      <trkpt lat="47.23327" lon="5.65451">
        <ele>258.731934</ele>
        <time>2011-03-24T14:41:45Z</time>
      </trkpt>
      <trkpt lat="47.23317" lon="5.65473">
        <ele>256.809326</ele>
        <time>2011-03-24T14:42:04Z</time>
      </trkpt>
      <trkpt lat="47.23295" lon="5.655">
        <ele>253.925415</ele>
        <time>2011-03-24T14:42:23Z</time>
      </trkpt>
      <trkpt lat="47.23285" lon="5.6552">
        <ele>252.963989</ele>
        <time>2011-03-24T14:42:36Z</time>
      </trkpt>
      <trkpt lat="47.23273" lon="5.65545">
        <ele>254.406006</ele>
        <time>2011-03-24T14:42:54Z</time>
      </trkpt>
      <trkpt lat="47.23266" lon="5.65567">
        <ele>254.406006</ele>
        <time>2011-03-24T14:43:12Z</time>
      </trkpt>
      <trkpt lat="47.23252" lon="5.65596">
        <ele>254.886597</ele>
        <time>2011-03-24T14:43:35Z</time>
      </trkpt>
      <trkpt lat="47.23246" lon="5.65632">
        <ele>257.770752</ele>
        <time>2011-03-24T14:44:01Z</time>
      </trkpt>
      <trkpt lat="47.23247" lon="5.65633">
        <ele>257.770752</ele>
        <time>2011-03-24T14:44:02Z</time>
      </trkpt>
      <trkpt lat="47.23258" lon="5.6567">
        <ele>258.731934</ele>
        <time>2011-03-24T14:44:25Z</time>
      </trkpt>
      <trkpt lat="47.23265" lon="5.65689">
        <ele>259.212646</ele>
        <time>2011-03-24T14:44:43Z</time>
      </trkpt>
      <trkpt lat="47.23281" lon="5.65704">
        <ele>257.770752</ele>
        <time>2011-03-24T14:45:06Z</time>
      </trkpt>
      <trkpt lat="47.23299" lon="5.65713">
        <ele>257.290039</ele>
        <time>2011-03-24T14:45:22Z</time>
      </trkpt>
      <trkpt lat="47.23312" lon="5.65729">
        <ele>257.770752</ele>
        <time>2011-03-24T14:45:37Z</time>
      </trkpt>
      <trkpt lat="47.23326" lon="5.65747">
        <ele>257.770752</ele>
        <time>2011-03-24T14:45:55Z</time>
      </trkpt>
      <trkpt lat="47.23328" lon="5.6575">
        <ele>257.290039</ele>
        <time>2011-03-24T14:45:57Z</time>
      </trkpt>
      <trkpt lat="47.23333" lon="5.65757">
        <ele>257.290039</ele>
        <time>2011-03-24T14:46:04Z</time>
      </trkpt>
      <trkpt lat="47.23349" lon="5.6577">
        <ele>256.809326</ele>
        <time>2011-03-24T14:46:16Z</time>
      </trkpt>
      <trkpt lat="47.23365" lon="5.65799">
        <ele>257.290039</ele>
        <time>2011-03-24T14:46:37Z</time>
      </trkpt>
      <trkpt lat="47.23369" lon="5.65819">
        <ele>258.731934</ele>
        <time>2011-03-24T14:46:50Z</time>
      </trkpt>
      <trkpt lat="47.2336" lon="5.65849">
        <ele>262.096558</ele>
        <time>2011-03-24T14:47:10Z</time>
      </trkpt>
      <trkpt lat="47.2335" lon="5.65866">
        <ele>264.980591</ele>
        <time>2011-03-24T14:47:29Z</time>
      </trkpt>
      <trkpt lat="47.23333" lon="5.65884">
        <ele>268.345093</ele>
        <time>2011-03-24T14:47:48Z</time>
      </trkpt>
      <trkpt lat="47.23328" lon="5.65893">
        <ele>271.229126</ele>
        <time>2011-03-24T14:48:08Z</time>
      </trkpt>
      <trkpt lat="47.23325" lon="5.65898">
        <ele>272.671143</ele>
        <time>2011-03-24T14:48:29Z</time>
      </trkpt>
      <trkpt lat="47.23336" lon="5.6591">
        <ele>271.229126</ele>
        <time>2011-03-24T14:54:43Z</time>
      </trkpt>
      <trkpt lat="47.23357" lon="5.65924">
        <ele>269.306519</ele>
        <time>2011-03-24T14:55:02Z</time>
      </trkpt>
      <trkpt lat="47.23374" lon="5.65941">
        <ele>266.903198</ele>
        <time>2011-03-24T14:55:24Z</time>
      </trkpt>
      <trkpt lat="47.2339" lon="5.65951">
        <ele>264.980591</ele>
        <time>2011-03-24T14:55:39Z</time>
      </trkpt>
      <trkpt lat="47.23412" lon="5.65973">
        <ele>262.577148</ele>
        <time>2011-03-24T14:56:01Z</time>
      </trkpt>
      <trkpt lat="47.23432" lon="5.65985">
        <ele>260.654541</ele>
        <time>2011-03-24T14:56:17Z</time>
      </trkpt>
      <trkpt lat="47.23456" lon="5.66016">
        <ele>257.770752</ele>
        <time>2011-03-24T14:56:40Z</time>
      </trkpt>
      <trkpt lat="47.23464" lon="5.66021">
        <ele>257.290039</ele>
        <time>2011-03-24T14:56:46Z</time>
      </trkpt>
      <trkpt lat="47.23475" lon="5.66057">
        <ele>254.886597</ele>
        <time>2011-03-24T14:57:08Z</time>
      </trkpt>
      <trkpt lat="47.23485" lon="5.66079">
        <ele>252.963989</ele>
        <time>2011-03-24T14:57:27Z</time>
      </trkpt>
      <trkpt lat="47.23498" lon="5.661">
        <ele>251.522095</ele>
        <time>2011-03-24T14:57:43Z</time>
      </trkpt>
      <trkpt lat="47.23505" lon="5.66112">
        <ele>250.0802</ele>
        <time>2011-03-24T14:57:55Z</time>
      </trkpt>
      <trkpt lat="47.23508" lon="5.66116">
        <ele>249.118774</ele>
        <time>2011-03-24T14:57:58Z</time>
      </trkpt>
      <trkpt lat="47.23511" lon="5.66121">
        <ele>248.638184</ele>
        <time>2011-03-24T14:58:02Z</time>
      </trkpt>
      <trkpt lat="47.23524" lon="5.66144">
        <ele>246.715454</ele>
        <time>2011-03-24T14:58:20Z</time>
      </trkpt>
      <trkpt lat="47.23531" lon="5.66163">
        <ele>245.75415</ele>
        <time>2011-03-24T14:58:33Z</time>
      </trkpt>
      <trkpt lat="47.2353" lon="5.662">
        <ele>243.831543</ele>
        <time>2011-03-24T14:58:50Z</time>
      </trkpt>
      <trkpt lat="47.23545" lon="5.66227">
        <ele>240.947632</ele>
        <time>2011-03-24T14:59:08Z</time>
      </trkpt>
      <trkpt lat="47.23567" lon="5.66249">
        <ele>239.024902</ele>
        <time>2011-03-24T14:59:28Z</time>
      </trkpt>
      <trkpt lat="47.23572" lon="5.66257">
        <ele>238.544312</ele>
        <time>2011-03-24T14:59:36Z</time>
      </trkpt>
      <trkpt lat="47.23585" lon="5.66273">
        <ele>237.582886</ele>
        <time>2011-03-24T14:59:50Z</time>
      </trkpt>
      <trkpt lat="47.23586" lon="5.66274">
        <ele>237.582886</ele>
        <time>2011-03-24T14:59:51Z</time>
      </trkpt>
      <trkpt lat="47.23605" lon="5.66305">
        <ele>237.102295</ele>
        <time>2011-03-24T15:00:12Z</time>
      </trkpt>
      <trkpt lat="47.23617" lon="5.66319">
        <ele>236.621704</ele>
        <time>2011-03-24T15:00:22Z</time>
      </trkpt>
      <trkpt lat="47.2362" lon="5.66325">
        <ele>236.621704</ele>
        <time>2011-03-24T15:00:26Z</time>
      </trkpt>
      <trkpt lat="47.23622" lon="5.66328">
        <ele>236.621704</ele>
        <time>2011-03-24T15:00:28Z</time>
      </trkpt>
      <trkpt lat="47.23639" lon="5.6635">
        <ele>236.140991</ele>
        <time>2011-03-24T15:00:42Z</time>
      </trkpt>
      <trkpt lat="47.2364" lon="5.66351">
        <ele>236.140991</ele>
        <time>2011-03-24T15:00:44Z</time>
      </trkpt>
      <trkpt lat="47.23647" lon="5.66361">
        <ele>235.660278</ele>
        <time>2011-03-24T15:00:51Z</time>
      </trkpt>
      <trkpt lat="47.23661" lon="5.66383">
        <ele>234.699097</ele>
        <time>2011-03-24T15:01:07Z</time>
      </trkpt>
      <trkpt lat="47.23677" lon="5.66405">
        <ele>234.218384</ele>
        <time>2011-03-24T15:01:23Z</time>
      </trkpt>
      <trkpt lat="47.23692" lon="5.66427">
        <ele>234.218384</ele>
        <time>2011-03-24T15:01:39Z</time>
      </trkpt>
      <trkpt lat="47.23694" lon="5.66432">
        <ele>234.218384</ele>
        <time>2011-03-24T15:01:42Z</time>
      </trkpt>
      <trkpt lat="47.2371" lon="5.66461">
        <ele>233.737671</ele>
        <time>2011-03-24T15:02:02Z</time>
      </trkpt>
      <trkpt lat="47.23712" lon="5.66464">
        <ele>233.737671</ele>
        <time>2011-03-24T15:02:04Z</time>
      </trkpt>
      <trkpt lat="47.2372" lon="5.66476">
        <ele>233.737671</ele>
        <time>2011-03-24T15:02:13Z</time>
      </trkpt>
      <trkpt lat="47.23729" lon="5.66489">
        <ele>233.25708</ele>
        <time>2011-03-24T15:02:22Z</time>
      </trkpt>
      <trkpt lat="47.23744" lon="5.66512">
        <ele>231.814941</ele>
        <time>2011-03-24T15:02:40Z</time>
      </trkpt>
      <trkpt lat="47.23756" lon="5.66527">
        <ele>231.814941</ele>
        <time>2011-03-24T15:02:52Z</time>
      </trkpt>
      <trkpt lat="47.23759" lon="5.66531">
        <ele>231.814941</ele>
        <time>2011-03-24T15:02:55Z</time>
      </trkpt>
      <trkpt lat="47.2377" lon="5.66543">
        <ele>231.334351</ele>
        <time>2011-03-24T15:03:05Z</time>
      </trkpt>
      <trkpt lat="47.2378" lon="5.66559">
        <ele>230.85376</ele>
        <time>2011-03-24T15:03:18Z</time>
      </trkpt>
      <trkpt lat="47.23788" lon="5.66566">
        <ele>230.373047</ele>
        <time>2011-03-24T15:03:24Z</time>
      </trkpt>
      <trkpt lat="47.2379" lon="5.6657">
        <ele>230.373047</ele>
        <time>2011-03-24T15:03:27Z</time>
      </trkpt>
      <trkpt lat="47.23792" lon="5.66573">
        <ele>230.373047</ele>
        <time>2011-03-24T15:03:29Z</time>
      </trkpt>
      <trkpt lat="47.23796" lon="5.66578">
        <ele>230.373047</ele>
        <time>2011-03-24T15:03:33Z</time>
      </trkpt>
      <trkpt lat="47.238" lon="5.66584">
        <ele>230.373047</ele>
        <time>2011-03-24T15:03:37Z</time>
      </trkpt>
      <trkpt lat="47.23808" lon="5.66596">
        <ele>230.373047</ele>
        <time>2011-03-24T15:03:50Z</time>
      </trkpt>
      <trkpt lat="47.23817" lon="5.66614">
        <ele>229.892334</ele>
        <time>2011-03-24T15:04:20Z</time>
      </trkpt>
      <trkpt lat="47.23825" lon="5.66622">
        <ele>229.411743</ele>
        <time>2011-03-24T15:04:29Z</time>
      </trkpt>
      <trkpt lat="47.23847" lon="5.66627">
        <ele>228.450439</ele>
        <time>2011-03-24T15:04:48Z</time>
      </trkpt>
      <trkpt lat="47.23855" lon="5.66637">
        <ele>227.489136</ele>
        <time>2011-03-24T15:05:01Z</time>
      </trkpt>
      <trkpt lat="47.23864" lon="5.66643">
        <ele>227.489136</ele>
        <time>2011-03-24T15:05:07Z</time>
      </trkpt>
      <trkpt lat="47.23868" lon="5.66646">
        <ele>227.489136</ele>
        <time>2011-03-24T15:05:09Z</time>
      </trkpt>
      <trkpt lat="47.23872" lon="5.66653">
        <ele>227.008545</ele>
        <time>2011-03-24T15:05:14Z</time>
      </trkpt>
      <trkpt lat="47.23877" lon="5.66661">
        <ele>226.527832</ele>
        <time>2011-03-24T15:05:19Z</time>
      </trkpt>
      <trkpt lat="47.23879" lon="5.66666">
        <ele>225.566528</ele>
        <time>2011-03-24T15:05:23Z</time>
      </trkpt>
      <trkpt lat="47.23882" lon="5.66676">
        <ele>225.085938</ele>
        <time>2011-03-24T15:05:30Z</time>
      </trkpt>
      <trkpt lat="47.23898" lon="5.66698">
        <ele>223.163208</ele>
        <time>2011-03-24T15:05:48Z</time>
      </trkpt>
      <trkpt lat="47.23905" lon="5.66696">
        <ele>222.201782</ele>
        <time>2011-03-24T15:06:08Z</time>
      </trkpt>
      <trkpt lat="47.2391" lon="5.66699">
        <ele>221.240601</ele>
        <time>2011-03-24T15:06:16Z</time>
      </trkpt>
      <trkpt lat="47.23936" lon="5.66702">
        <ele>218.83728</ele>
        <time>2011-03-24T15:06:36Z</time>
      </trkpt>
      <trkpt lat="47.23947" lon="5.66701">
        <ele>216.914673</ele>
        <time>2011-03-24T15:06:46Z</time>
      </trkpt>
      <trkpt lat="47.23959" lon="5.66703">
        <ele>214.51123</ele>
        <time>2011-03-24T15:07:01Z</time>
      </trkpt>
      <trkpt lat="47.2397" lon="5.66707">
        <ele>213.550049</ele>
        <time>2011-03-24T15:07:11Z</time>
      </trkpt>
      <trkpt lat="47.23964" lon="5.66728">
        <ele>212.108032</ele>
        <time>2011-03-24T15:07:30Z</time>
      </trkpt>
      <trkpt lat="47.23957" lon="5.66735">
        <ele>211.627441</ele>
        <time>2011-03-24T15:07:36Z</time>
      </trkpt>
      <trkpt lat="47.23954" lon="5.66736">
        <ele>211.627441</ele>
        <time>2011-03-24T15:07:38Z</time>
      </trkpt>
      <trkpt lat="47.23937" lon="5.66742">
        <ele>211.627441</ele>
        <time>2011-03-24T15:07:54Z</time>
      </trkpt>
      <trkpt lat="47.23915" lon="5.66749">
        <ele>211.146729</ele>
        <time>2011-03-24T15:08:11Z</time>
      </trkpt>
      <trkpt lat="47.23896" lon="5.66757">
        <ele>211.146729</ele>
        <time>2011-03-24T15:08:28Z</time>
      </trkpt>
      <trkpt lat="47.23879" lon="5.66776">
        <ele>211.146729</ele>
        <time>2011-03-24T15:08:44Z</time>
      </trkpt>
      <trkpt lat="47.23864" lon="5.66804">
        <ele>211.146729</ele>
        <time>2011-03-24T15:08:57Z</time>
      </trkpt>
      <trkpt lat="47.23856" lon="5.66822">
        <ele>212.108032</ele>
        <time>2011-03-24T15:09:12Z</time>
      </trkpt>
      <trkpt lat="47.23852" lon="5.66844">
        <ele>212.108032</ele>
        <time>2011-03-24T15:09:27Z</time>
      </trkpt>
      <trkpt lat="47.23848" lon="5.66866">
        <ele>212.108032</ele>
        <time>2011-03-24T15:09:41Z</time>
      </trkpt>
      <trkpt lat="47.23845" lon="5.66889">
        <ele>212.108032</ele>
        <time>2011-03-24T15:09:57Z</time>
      </trkpt>
      <trkpt lat="47.23844" lon="5.66894">
        <ele>212.108032</ele>
        <time>2011-03-24T15:10:00Z</time>
      </trkpt>
      <trkpt lat="47.23838" lon="5.66913">
        <ele>212.108032</ele>
        <time>2011-03-24T15:10:14Z</time>
      </trkpt>
      <trkpt lat="47.23826" lon="5.66931">
        <ele>213.069336</ele>
        <time>2011-03-24T15:10:27Z</time>
      </trkpt>
      <trkpt lat="47.23814" lon="5.66946">
        <ele>213.069336</ele>
        <time>2011-03-24T15:10:43Z</time>
      </trkpt>
      <trkpt lat="47.23801" lon="5.66961">
        <ele>214.51123</ele>
        <time>2011-03-24T15:10:57Z</time>
      </trkpt>
      <trkpt lat="47.23789" lon="5.66984">
        <ele>215.953247</ele>
        <time>2011-03-24T15:11:16Z</time>
      </trkpt>
      <trkpt lat="47.23777" lon="5.66995">
        <ele>217.395386</ele>
        <time>2011-03-24T15:11:31Z</time>
      </trkpt>
      <trkpt lat="47.23759" lon="5.67">
        <ele>218.83728</ele>
        <time>2011-03-24T15:11:47Z</time>
      </trkpt>
      <trkpt lat="47.23746" lon="5.67004">
        <ele>218.83728</ele>
        <time>2011-03-24T15:11:54Z</time>
      </trkpt>
      <trkpt lat="47.23707" lon="5.67015">
        <ele>220.279175</ele>
        <time>2011-03-24T15:12:11Z</time>
      </trkpt>
      <trkpt lat="47.23702" lon="5.67011">
        <ele>220.279175</ele>
        <time>2011-03-24T15:12:17Z</time>
      </trkpt>
      <trkpt lat="47.23685" lon="5.67016">
        <ele>221.240601</ele>
        <time>2011-03-24T15:12:27Z</time>
      </trkpt>
      <trkpt lat="47.23672" lon="5.67011">
        <ele>222.201782</ele>
        <time>2011-03-24T15:12:41Z</time>
      </trkpt>
      <trkpt lat="47.23668" lon="5.67011">
        <ele>222.682495</ele>
        <time>2011-03-24T15:12:45Z</time>
      </trkpt>
      <trkpt lat="47.23648" lon="5.67011">
        <ele>223.643799</ele>
        <time>2011-03-24T15:13:00Z</time>
      </trkpt>
      <trkpt lat="47.23625" lon="5.67014">
        <ele>225.085938</ele>
        <time>2011-03-24T15:13:17Z</time>
      </trkpt>
      <trkpt lat="47.23613" lon="5.67014">
        <ele>225.566528</ele>
        <time>2011-03-24T15:13:38Z</time>
      </trkpt>
      <trkpt lat="47.23593" lon="5.67017">
        <ele>226.047119</ele>
        <time>2011-03-24T15:13:57Z</time>
      </trkpt>
      <trkpt lat="47.2357" lon="5.67023">
        <ele>226.527832</ele>
        <time>2011-03-24T15:14:14Z</time>
      </trkpt>
      <trkpt lat="47.23546" lon="5.67026">
        <ele>227.489136</ele>
        <time>2011-03-24T15:14:32Z</time>
      </trkpt>
      <trkpt lat="47.23536" lon="5.67025">
        <ele>227.969727</ele>
        <time>2011-03-24T15:14:41Z</time>
      </trkpt>
      <trkpt lat="47.23515" lon="5.67015">
        <ele>228.931152</ele>
        <time>2011-03-24T15:14:59Z</time>
      </trkpt>
      <trkpt lat="47.23508" lon="5.6701">
        <ele>229.892334</ele>
        <time>2011-03-24T15:15:05Z</time>
      </trkpt>
      <trkpt lat="47.23491" lon="5.67">
        <ele>230.85376</ele>
        <time>2011-03-24T15:15:20Z</time>
      </trkpt>
      <trkpt lat="47.23477" lon="5.66993">
        <ele>231.814941</ele>
        <time>2011-03-24T15:15:34Z</time>
      </trkpt>
      <trkpt lat="47.2346" lon="5.66988">
        <ele>230.85376</ele>
        <time>2011-03-24T15:15:50Z</time>
      </trkpt>
      <trkpt lat="47.23439" lon="5.66992">
        <ele>230.85376</ele>
        <time>2011-03-24T15:16:08Z</time>
      </trkpt>
      <trkpt lat="47.2342" lon="5.6702">
        <ele>231.814941</ele>
        <time>2011-03-24T15:16:30Z</time>
      </trkpt>
      <trkpt lat="47.23404" lon="5.67033">
        <ele>232.295776</ele>
        <time>2011-03-24T15:16:43Z</time>
      </trkpt>
      <trkpt lat="47.23382" lon="5.67044">
        <ele>230.373047</ele>
        <time>2011-03-24T15:17:02Z</time>
      </trkpt>
      <trkpt lat="47.23378" lon="5.67046">
        <ele>229.411743</ele>
        <time>2011-03-24T15:17:06Z</time>
      </trkpt>
      <trkpt lat="47.23374" lon="5.6705">
        <ele>228.931152</ele>
        <time>2011-03-24T15:17:10Z</time>
      </trkpt>
      <trkpt lat="47.23366" lon="5.67051">
        <ele>228.450439</ele>
        <time>2011-03-24T15:17:14Z</time>
      </trkpt>
      <trkpt lat="47.23343" lon="5.67071">
        <ele>225.566528</ele>
        <time>2011-03-24T15:17:36Z</time>
      </trkpt>
      <trkpt lat="47.23333" lon="5.67097">
        <ele>225.085938</ele>
        <time>2011-03-24T15:17:58Z</time>
      </trkpt>
      <trkpt lat="47.23329" lon="5.67116">
        <ele>225.085938</ele>
        <time>2011-03-24T15:18:16Z</time>
      </trkpt>
      <trkpt lat="47.23312" lon="5.67142">
        <ele>225.566528</ele>
        <time>2011-03-24T15:18:34Z</time>
      </trkpt>
      <trkpt lat="47.23283" lon="5.6717">
        <ele>226.047119</ele>
        <time>2011-03-24T15:18:54Z</time>
      </trkpt>
      <trkpt lat="47.23255" lon="5.67196">
        <ele>227.489136</ele>
        <time>2011-03-24T15:19:15Z</time>
      </trkpt>
      <trkpt lat="47.23239" lon="5.67203">
        <ele>228.931152</ele>
        <time>2011-03-24T15:19:32Z</time>
      </trkpt>
      <trkpt lat="47.23215" lon="5.67218">
        <ele>228.931152</ele>
        <time>2011-03-24T15:19:53Z</time>
      </trkpt>
      <trkpt lat="47.23197" lon="5.67231">
        <ele>228.450439</ele>
        <time>2011-03-24T15:20:08Z</time>
      </trkpt>
      <trkpt lat="47.23178" lon="5.67241">
        <ele>227.008545</ele>
        <time>2011-03-24T15:20:24Z</time>
      </trkpt>
      <trkpt lat="47.23164" lon="5.67251">
        <ele>226.047119</ele>
        <time>2011-03-24T15:20:40Z</time>
      </trkpt>
      <trkpt lat="47.2315" lon="5.67257">
        <ele>226.047119</ele>
        <time>2011-03-24T15:20:52Z</time>
      </trkpt>
      <trkpt lat="47.23141" lon="5.6727">
        <ele>226.527832</ele>
        <time>2011-03-24T15:21:03Z</time>
      </trkpt>
      <trkpt lat="47.23124" lon="5.673">
        <ele>225.566528</ele>
        <time>2011-03-24T15:21:24Z</time>
      </trkpt>
      <trkpt lat="47.231" lon="5.67322">
        <ele>226.047119</ele>
        <time>2011-03-24T15:21:38Z</time>
      </trkpt>
      <trkpt lat="47.23081" lon="5.67333">
        <ele>226.047119</ele>
        <time>2011-03-24T15:21:53Z</time>
      </trkpt>
      <trkpt lat="47.23067" lon="5.67338">
        <ele>225.566528</ele>
        <time>2011-03-24T15:22:06Z</time>
      </trkpt>
      <trkpt lat="47.23063" lon="5.67341">
        <ele>225.566528</ele>
        <time>2011-03-24T15:22:10Z</time>
      </trkpt>
      <trkpt lat="47.23041" lon="5.6735">
        <ele>224.605225</ele>
        <time>2011-03-24T15:22:29Z</time>
      </trkpt>
      <trkpt lat="47.23024" lon="5.67362">
        <ele>224.124512</ele>
        <time>2011-03-24T15:22:44Z</time>
      </trkpt>
      <trkpt lat="47.23012" lon="5.67379">
        <ele>224.605225</ele>
        <time>2011-03-24T15:22:58Z</time>
      </trkpt>
      <trkpt lat="47.23011" lon="5.67384">
        <ele>225.085938</ele>
        <time>2011-03-24T15:23:01Z</time>
      </trkpt>
      <trkpt lat="47.23007" lon="5.67394">
        <ele>225.085938</ele>
        <time>2011-03-24T15:23:06Z</time>
      </trkpt>
      <trkpt lat="47.23" lon="5.67416">
        <ele>226.527832</ele>
        <time>2011-03-24T15:23:21Z</time>
      </trkpt>
      <trkpt lat="47.22992" lon="5.67426">
        <ele>227.008545</ele>
        <time>2011-03-24T15:23:27Z</time>
      </trkpt>
      <trkpt lat="47.22971" lon="5.67443">
        <ele>227.969727</ele>
        <time>2011-03-24T15:23:42Z</time>
      </trkpt>
      <trkpt lat="47.22956" lon="5.67455">
        <ele>227.489136</ele>
        <time>2011-03-24T15:23:57Z</time>
      </trkpt>
      <trkpt lat="47.22941" lon="5.67467">
        <ele>226.047119</ele>
        <time>2011-03-24T15:24:14Z</time>
      </trkpt>
      <trkpt lat="47.22938" lon="5.67474">
        <ele>226.047119</ele>
        <time>2011-03-24T15:24:19Z</time>
      </trkpt>
      <trkpt lat="47.22932" lon="5.6748">
        <ele>226.047119</ele>
        <time>2011-03-24T15:24:22Z</time>
      </trkpt>
      <trkpt lat="47.2293" lon="5.67486">
        <ele>226.047119</ele>
        <time>2011-03-24T15:24:25Z</time>
      </trkpt>
      <trkpt lat="47.22911" lon="5.67508">
        <ele>227.969727</ele>
        <time>2011-03-24T15:24:43Z</time>
      </trkpt>
      <trkpt lat="47.22895" lon="5.67527">
        <ele>228.450439</ele>
        <time>2011-03-24T15:24:58Z</time>
      </trkpt>
      <trkpt lat="47.22888" lon="5.67531">
        <ele>228.450439</ele>
        <time>2011-03-24T15:25:01Z</time>
      </trkpt>
      <trkpt lat="47.22882" lon="5.67533">
        <ele>228.931152</ele>
        <time>2011-03-24T15:25:08Z</time>
      </trkpt>
      <trkpt lat="47.22864" lon="5.67534">
        <ele>228.931152</ele>
        <time>2011-03-24T15:25:23Z</time>
      </trkpt>
      <trkpt lat="47.22846" lon="5.67541">
        <ele>228.931152</ele>
        <time>2011-03-24T15:25:37Z</time>
      </trkpt>
      <trkpt lat="47.22824" lon="5.67553">
        <ele>227.969727</ele>
        <time>2011-03-24T15:25:52Z</time>
      </trkpt>
      <trkpt lat="47.22806" lon="5.67553">
        <ele>226.527832</ele>
        <time>2011-03-24T15:26:07Z</time>
      </trkpt>
      <trkpt lat="47.228" lon="5.67555">
        <ele>226.047119</ele>
        <time>2011-03-24T15:26:12Z</time>
      </trkpt>
      <trkpt lat="47.22794" lon="5.67555">
        <ele>226.047119</ele>
        <time>2011-03-24T15:26:18Z</time>
      </trkpt>
      <trkpt lat="47.22782" lon="5.67569">
        <ele>227.489136</ele>
        <time>2011-03-24T15:26:33Z</time>
      </trkpt>
      <trkpt lat="47.22773" lon="5.6758">
        <ele>228.931152</ele>
        <time>2011-03-24T15:26:43Z</time>
      </trkpt>
      <trkpt lat="47.22758" lon="5.67587">
        <ele>229.892334</ele>
        <time>2011-03-24T15:26:57Z</time>
      </trkpt>
      <trkpt lat="47.22741" lon="5.67597">
        <ele>231.334351</ele>
        <time>2011-03-24T15:27:11Z</time>
      </trkpt>
      <trkpt lat="47.22724" lon="5.67589">
        <ele>232.295776</ele>
        <time>2011-03-24T15:27:27Z</time>
      </trkpt>
      <trkpt lat="47.227" lon="5.67587">
        <ele>232.776489</ele>
        <time>2011-03-24T15:27:43Z</time>
      </trkpt>
      <trkpt lat="47.22679" lon="5.67584">
        <ele>231.814941</ele>
        <time>2011-03-24T15:27:57Z</time>
      </trkpt>
      <trkpt lat="47.22674" lon="5.67587">
        <ele>231.814941</ele>
        <time>2011-03-24T15:28:00Z</time>
      </trkpt>
      <trkpt lat="47.22658" lon="5.67599">
        <ele>232.295776</ele>
        <time>2011-03-24T15:28:17Z</time>
      </trkpt>
      <trkpt lat="47.2265" lon="5.67603">
        <ele>233.25708</ele>
        <time>2011-03-24T15:28:22Z</time>
      </trkpt>
      <trkpt lat="47.22644" lon="5.6761">
        <ele>233.737671</ele>
        <time>2011-03-24T15:28:28Z</time>
      </trkpt>
      <trkpt lat="47.22636" lon="5.67614">
        <ele>233.737671</ele>
        <time>2011-03-24T15:28:34Z</time>
      </trkpt>
      <trkpt lat="47.22632" lon="5.67616">
        <ele>233.737671</ele>
        <time>2011-03-24T15:28:39Z</time>
      </trkpt>
      <trkpt lat="47.22626" lon="5.67617">
        <ele>233.737671</ele>
        <time>2011-03-24T15:28:54Z</time>
      </trkpt>
      <trkpt lat="47.22624" lon="5.67618">
        <ele>233.25708</ele>
        <time>2011-03-24T15:28:56Z</time>
      </trkpt>
      <trkpt lat="47.22614" lon="5.67625">
        <ele>232.776489</ele>
        <time>2011-03-24T15:29:05Z</time>
      </trkpt>
      <trkpt lat="47.22608" lon="5.67632">
        <ele>232.295776</ele>
        <time>2011-03-24T15:29:12Z</time>
      </trkpt>
      <trkpt lat="47.22588" lon="5.67644">
        <ele>231.334351</ele>
        <time>2011-03-24T15:29:29Z</time>
      </trkpt>
      <trkpt lat="47.22587" lon="5.67645">
        <ele>231.334351</ele>
        <time>2011-03-24T15:29:30Z</time>
      </trkpt>
      <trkpt lat="47.22566" lon="5.6766">
        <ele>231.334351</ele>
        <time>2011-03-24T15:29:47Z</time>
      </trkpt>
      <trkpt lat="47.22544" lon="5.67681">
        <ele>230.85376</ele>
        <time>2011-03-24T15:30:06Z</time>
      </trkpt>
      <trkpt lat="47.2253" lon="5.67688">
        <ele>230.85376</ele>
        <time>2011-03-24T15:30:19Z</time>
      </trkpt>
      <trkpt lat="47.22512" lon="5.67696">
        <ele>230.85376</ele>
        <time>2011-03-24T15:30:32Z</time>
      </trkpt>
      <trkpt lat="47.22508" lon="5.67698">
        <ele>231.334351</ele>
        <time>2011-03-24T15:30:35Z</time>
      </trkpt>
      <trkpt lat="47.22501" lon="5.67703">
        <ele>231.814941</ele>
        <time>2011-03-24T15:30:44Z</time>
      </trkpt>
      <trkpt lat="47.22475" lon="5.67718">
        <ele>232.776489</ele>
        <time>2011-03-24T15:31:02Z</time>
      </trkpt>
      <trkpt lat="47.22461" lon="5.67723">
        <ele>233.737671</ele>
        <time>2011-03-24T15:31:23Z</time>
      </trkpt>
      <trkpt lat="47.22444" lon="5.67731">
        <ele>233.737671</ele>
        <time>2011-03-24T15:31:42Z</time>
      </trkpt>
      <trkpt lat="47.22416" lon="5.67742">
        <ele>232.776489</ele>
        <time>2011-03-24T15:32:09Z</time>
      </trkpt>
      <trkpt lat="47.22406" lon="5.67746">
        <ele>232.776489</ele>
        <time>2011-03-24T15:32:18Z</time>
      </trkpt>
      <trkpt lat="47.22381" lon="5.67747">
        <ele>230.373047</ele>
        <time>2011-03-24T15:32:39Z</time>
      </trkpt>
      <trkpt lat="47.22362" lon="5.67746">
        <ele>227.008545</ele>
        <time>2011-03-24T15:33:01Z</time>
      </trkpt>
      <trkpt lat="47.2236" lon="5.67762">
        <ele>226.047119</ele>
        <time>2011-03-24T15:33:14Z</time>
      </trkpt>
      <trkpt lat="47.22363" lon="5.67783">
        <ele>224.124512</ele>
        <time>2011-03-24T15:33:28Z</time>
      </trkpt>
      <trkpt lat="47.22368" lon="5.67788">
        <ele>223.163208</ele>
        <time>2011-03-24T15:33:33Z</time>
      </trkpt>
      <trkpt lat="47.22367" lon="5.67795">
        <ele>222.682495</ele>
        <time>2011-03-24T15:33:37Z</time>
      </trkpt>
      <trkpt lat="47.22363" lon="5.67815">
        <ele>221.240601</ele>
        <time>2011-03-24T15:33:49Z</time>
      </trkpt>
      <trkpt lat="47.22365" lon="5.67823">
        <ele>220.759888</ele>
        <time>2011-03-24T15:33:56Z</time>
      </trkpt>
      <trkpt lat="47.22368" lon="5.67843">
        <ele>220.759888</ele>
        <time>2011-03-24T15:34:12Z</time>
      </trkpt>
      <trkpt lat="47.22366" lon="5.67863">
        <ele>221.240601</ele>
        <time>2011-03-24T15:34:29Z</time>
      </trkpt>
      <trkpt lat="47.22365" lon="5.67875">
        <ele>220.759888</ele>
        <time>2011-03-24T15:34:57Z</time>
      </trkpt>
      <trkpt lat="47.22356" lon="5.67904">
        <ele>220.279175</ele>
        <time>2011-03-24T15:35:15Z</time>
      </trkpt>
      <trkpt lat="47.22361" lon="5.67915">
        <ele>219.798584</ele>
        <time>2011-03-24T15:35:37Z</time>
      </trkpt>
      <trkpt lat="47.22364" lon="5.67915">
        <ele>219.798584</ele>
        <time>2011-03-24T15:36:50Z</time>
      </trkpt>
      <trkpt lat="47.2235" lon="5.67914">
        <ele>218.356567</ele>
        <time>2011-03-24T15:38:04Z</time>
      </trkpt>
      <trkpt lat="47.22349" lon="5.67916">
        <ele>214.51123</ele>
        <time>2011-03-24T15:45:14Z</time>
      </trkpt>
      <trkpt lat="47.22352" lon="5.67924">
        <ele>214.991943</ele>
        <time>2011-03-24T15:47:09Z</time>
      </trkpt>
      <trkpt lat="47.22346" lon="5.67938">
        <ele>214.991943</ele>
        <time>2011-03-24T15:47:27Z</time>
      </trkpt>
      <trkpt lat="47.22342" lon="5.67939">
        <ele>214.991943</ele>
        <time>2011-03-24T15:47:32Z</time>
      </trkpt>
      <trkpt lat="47.22327" lon="5.67949">
        <ele>214.991943</ele>
        <time>2011-03-24T15:47:52Z</time>
      </trkpt>
      <trkpt lat="47.22309" lon="5.67962">
        <ele>215.472656</ele>
        <time>2011-03-24T15:48:11Z</time>
      </trkpt>
      <trkpt lat="47.223" lon="5.67979">
        <ele>215.472656</ele>
        <time>2011-03-24T15:48:25Z</time>
      </trkpt>
      <trkpt lat="47.22299" lon="5.67982">
        <ele>215.953247</ele>
        <time>2011-03-24T15:48:27Z</time>
      </trkpt>
      <trkpt lat="47.22289" lon="5.68016">
        <ele>217.875977</ele>
        <time>2011-03-24T15:48:49Z</time>
      </trkpt>
      <trkpt lat="47.22289" lon="5.68015">
        <ele>217.875977</ele>
        <time>2011-03-24T15:48:50Z</time>
      </trkpt>
      <trkpt lat="47.22273" lon="5.68027">
        <ele>220.759888</ele>
        <time>2011-03-24T15:49:11Z</time>
      </trkpt>
      <trkpt lat="47.22256" lon="5.68038">
        <ele>223.643799</ele>
        <time>2011-03-24T15:49:32Z</time>
      </trkpt>
      <trkpt lat="47.22243" lon="5.68053">
        <ele>227.008545</ele>
        <time>2011-03-24T15:49:51Z</time>
      </trkpt>
      <trkpt lat="47.22238" lon="5.68071">
        <ele>228.450439</ele>
        <time>2011-03-24T15:50:05Z</time>
      </trkpt>
      <trkpt lat="47.22228" lon="5.68092">
        <ele>230.373047</ele>
        <time>2011-03-24T15:50:20Z</time>
      </trkpt>
      <trkpt lat="47.22213" lon="5.68115">
        <ele>232.776489</ele>
        <time>2011-03-24T15:50:42Z</time>
      </trkpt>
      <trkpt lat="47.22195" lon="5.6813">
        <ele>234.218384</ele>
        <time>2011-03-24T15:51:02Z</time>
      </trkpt>
      <trkpt lat="47.22178" lon="5.68145">
        <ele>235.179688</ele>
        <time>2011-03-24T15:51:20Z</time>
      </trkpt>
      <trkpt lat="47.22159" lon="5.68161">
        <ele>235.660278</ele>
        <time>2011-03-24T15:51:37Z</time>
      </trkpt>
      <trkpt lat="47.22157" lon="5.68163">
        <ele>235.660278</ele>
        <time>2011-03-24T15:51:39Z</time>
      </trkpt>
      <trkpt lat="47.22147" lon="5.6818">
        <ele>235.660278</ele>
        <time>2011-03-24T15:51:54Z</time>
      </trkpt>
      <trkpt lat="47.22145" lon="5.68184">
        <ele>235.179688</ele>
        <time>2011-03-24T15:51:57Z</time>
      </trkpt>
      <trkpt lat="47.22141" lon="5.68186">
        <ele>234.218384</ele>
        <time>2011-03-24T15:52:01Z</time>
      </trkpt>
      <trkpt lat="47.22121" lon="5.68195">
        <ele>232.776489</ele>
        <time>2011-03-24T15:52:18Z</time>
      </trkpt>
      <trkpt lat="47.22104" lon="5.68205">
        <ele>231.814941</ele>
        <time>2011-03-24T15:52:32Z</time>
      </trkpt>
      <trkpt lat="47.221" lon="5.68202">
        <ele>231.814941</ele>
        <time>2011-03-24T15:52:36Z</time>
      </trkpt>
      <trkpt lat="47.22082" lon="5.68166">
        <ele>229.892334</ele>
        <time>2011-03-24T15:52:59Z</time>
      </trkpt>
      <trkpt lat="47.22066" lon="5.68125">
        <ele>228.450439</ele>
        <time>2011-03-24T15:53:23Z</time>
      </trkpt>
      <trkpt lat="47.22053" lon="5.68088">
        <ele>227.008545</ele>
        <time>2011-03-24T15:53:47Z</time>
      </trkpt>
      <trkpt lat="47.22037" lon="5.68042">
        <ele>224.605225</ele>
        <time>2011-03-24T15:54:15Z</time>
      </trkpt>
      <trkpt lat="47.2202" lon="5.67998">
        <ele>221.721191</ele>
        <time>2011-03-24T15:54:43Z</time>
      </trkpt>
      <trkpt lat="47.22002" lon="5.67993">
        <ele>219.317993</ele>
        <time>2011-03-24T15:55:01Z</time>
      </trkpt>
      <trkpt lat="47.21982" lon="5.68013">
        <ele>218.83728</ele>
        <time>2011-03-24T15:55:21Z</time>
      </trkpt>
      <trkpt lat="47.21963" lon="5.68028">
        <ele>218.83728</ele>
        <time>2011-03-24T15:55:41Z</time>
      </trkpt>
      <trkpt lat="47.21946" lon="5.68036">
        <ele>219.317993</ele>
        <time>2011-03-24T15:55:57Z</time>
      </trkpt>
      <trkpt lat="47.21923" lon="5.68054">
        <ele>219.317993</ele>
        <time>2011-03-24T15:56:17Z</time>
      </trkpt>
      <trkpt lat="47.21903" lon="5.68065">
        <ele>219.317993</ele>
        <time>2011-03-24T15:56:35Z</time>
      </trkpt>
      <trkpt lat="47.21881" lon="5.68078">
        <ele>219.317993</ele>
        <time>2011-03-24T15:56:55Z</time>
      </trkpt>
      <trkpt lat="47.21856" lon="5.6809">
        <ele>219.798584</ele>
        <time>2011-03-24T15:57:16Z</time>
      </trkpt>
      <trkpt lat="47.21836" lon="5.68099">
        <ele>219.798584</ele>
        <time>2011-03-24T15:57:32Z</time>
      </trkpt>
      <trkpt lat="47.21808" lon="5.68098">
        <ele>220.279175</ele>
        <time>2011-03-24T15:57:51Z</time>
      </trkpt>
      <trkpt lat="47.21784" lon="5.68077">
        <ele>218.83728</ele>
        <time>2011-03-24T15:58:13Z</time>
      </trkpt>
      <trkpt lat="47.21775" lon="5.68056">
        <ele>217.875977</ele>
        <time>2011-03-24T15:58:26Z</time>
      </trkpt>
      <trkpt lat="47.21768" lon="5.68033">
        <ele>217.875977</ele>
        <time>2011-03-24T15:58:39Z</time>
      </trkpt>
      <trkpt lat="47.21751" lon="5.67995">
        <ele>217.875977</ele>
        <time>2011-03-24T15:59:02Z</time>
      </trkpt>
      <trkpt lat="47.21731" lon="5.67968">
        <ele>218.356567</ele>
        <time>2011-03-24T15:59:23Z</time>
      </trkpt>
      <trkpt lat="47.21707" lon="5.6795">
        <ele>218.356567</ele>
        <time>2011-03-24T15:59:46Z</time>
      </trkpt>
      <trkpt lat="47.21677" lon="5.67935">
        <ele>218.83728</ele>
        <time>2011-03-24T16:00:10Z</time>
      </trkpt>
      <trkpt lat="47.21664" lon="5.6793">
        <ele>218.83728</ele>
        <time>2011-03-24T16:00:20Z</time>
      </trkpt>
      <trkpt lat="47.21647" lon="5.67912">
        <ele>219.317993</ele>
        <time>2011-03-24T16:00:39Z</time>
      </trkpt>
      <trkpt lat="47.21634" lon="5.67903">
        <ele>219.317993</ele>
        <time>2011-03-24T16:00:54Z</time>
      </trkpt>
      <trkpt lat="47.21616" lon="5.6789">
        <ele>219.798584</ele>
        <time>2011-03-24T16:01:09Z</time>
      </trkpt>
      <trkpt lat="47.21597" lon="5.67876">
        <ele>219.798584</ele>
        <time>2011-03-24T16:01:24Z</time>
      </trkpt>
      <trkpt lat="47.21593" lon="5.67869">
        <ele>219.798584</ele>
        <time>2011-03-24T16:01:29Z</time>
      </trkpt>
      <trkpt lat="47.21588" lon="5.67838">
        <ele>219.798584</ele>
        <time>2011-03-24T16:01:45Z</time>
      </trkpt>
      <trkpt lat="47.21586" lon="5.67828">
        <ele>219.798584</ele>
        <time>2011-03-24T16:01:51Z</time>
      </trkpt>
      <trkpt lat="47.21582" lon="5.67813">
        <ele>220.279175</ele>
        <time>2011-03-24T16:02:01Z</time>
      </trkpt>
      <trkpt lat="47.21561" lon="5.67796">
        <ele>220.279175</ele>
        <time>2011-03-24T16:02:17Z</time>
      </trkpt>
      <trkpt lat="47.21538" lon="5.67792">
        <ele>220.279175</ele>
        <time>2011-03-24T16:02:37Z</time>
      </trkpt>
      <trkpt lat="47.21534" lon="5.67791">
        <ele>220.279175</ele>
        <time>2011-03-24T16:02:40Z</time>
      </trkpt>
      <trkpt lat="47.21513" lon="5.67781">
        <ele>221.721191</ele>
        <time>2011-03-24T16:02:58Z</time>
      </trkpt>
      <trkpt lat="47.21496" lon="5.67769">
        <ele>222.682495</ele>
        <time>2011-03-24T16:03:12Z</time>
      </trkpt>
      <trkpt lat="47.21487" lon="5.67764">
        <ele>223.163208</ele>
        <time>2011-03-24T16:03:20Z</time>
      </trkpt>
      <trkpt lat="47.21473" lon="5.67757">
        <ele>223.163208</ele>
        <time>2011-03-24T16:03:30Z</time>
      </trkpt>
      <trkpt lat="47.21465" lon="5.67752">
        <ele>223.163208</ele>
        <time>2011-03-24T16:03:37Z</time>
      </trkpt>
      <trkpt lat="47.21461" lon="5.67752">
        <ele>223.163208</ele>
        <time>2011-03-24T16:03:40Z</time>
      </trkpt>
      <trkpt lat="47.21454" lon="5.67749">
        <ele>223.643799</ele>
        <time>2011-03-24T16:03:46Z</time>
      </trkpt>
      <trkpt lat="47.21437" lon="5.6774">
        <ele>223.643799</ele>
        <time>2011-03-24T16:04:01Z</time>
      </trkpt>
      <trkpt lat="47.21418" lon="5.67729">
        <ele>224.124512</ele>
        <time>2011-03-24T16:04:17Z</time>
      </trkpt>
      <trkpt lat="47.21414" lon="5.67726">
        <ele>223.643799</ele>
        <time>2011-03-24T16:04:20Z</time>
      </trkpt>
      <trkpt lat="47.21409" lon="5.67723">
        <ele>223.643799</ele>
        <time>2011-03-24T16:04:23Z</time>
      </trkpt>
      <trkpt lat="47.21394" lon="5.67718">
        <ele>223.643799</ele>
        <time>2011-03-24T16:04:34Z</time>
      </trkpt>
      <trkpt lat="47.21391" lon="5.67717">
        <ele>223.643799</ele>
        <time>2011-03-24T16:04:36Z</time>
      </trkpt>
      <trkpt lat="47.21387" lon="5.67716">
        <ele>223.643799</ele>
        <time>2011-03-24T16:04:40Z</time>
      </trkpt>
      <trkpt lat="47.21383" lon="5.67705">
        <ele>224.605225</ele>
        <time>2011-03-24T16:04:52Z</time>
      </trkpt>
      <trkpt lat="47.21372" lon="5.67677">
        <ele>226.047119</ele>
        <time>2011-03-24T16:05:13Z</time>
      </trkpt>
      <trkpt lat="47.21369" lon="5.67673">
        <ele>226.047119</ele>
        <time>2011-03-24T16:05:18Z</time>
      </trkpt>
      <trkpt lat="47.21365" lon="5.67662">
        <ele>226.527832</ele>
        <time>2011-03-24T16:05:25Z</time>
      </trkpt>
      <trkpt lat="47.2135" lon="5.67636">
        <ele>226.047119</ele>
        <time>2011-03-24T16:05:40Z</time>
      </trkpt>
      <trkpt lat="47.21338" lon="5.67615">
        <ele>225.085938</ele>
        <time>2011-03-24T16:05:49Z</time>
      </trkpt>
      <trkpt lat="47.21336" lon="5.67613">
        <ele>225.085938</ele>
        <time>2011-03-24T16:05:51Z</time>
      </trkpt>
      <trkpt lat="47.21332" lon="5.67607">
        <ele>224.605225</ele>
        <time>2011-03-24T16:05:55Z</time>
      </trkpt>
      <trkpt lat="47.21329" lon="5.67605">
        <ele>225.085938</ele>
        <time>2011-03-24T16:05:57Z</time>
      </trkpt>
      <trkpt lat="47.21311" lon="5.67581">
        <ele>224.124512</ele>
        <time>2011-03-24T16:06:11Z</time>
      </trkpt>
      <trkpt lat="47.21296" lon="5.67548">
        <ele>224.124512</ele>
        <time>2011-03-24T16:06:30Z</time>
      </trkpt>
      <trkpt lat="47.2128" lon="5.67519">
        <ele>224.124512</ele>
        <time>2011-03-24T16:06:47Z</time>
      </trkpt>
      <trkpt lat="47.21254" lon="5.67478">
        <ele>225.085938</ele>
        <time>2011-03-24T16:07:14Z</time>
      </trkpt>
      <trkpt lat="47.21224" lon="5.67446">
        <ele>226.047119</ele>
        <time>2011-03-24T16:07:39Z</time>
      </trkpt>
      <trkpt lat="47.21198" lon="5.67427">
        <ele>227.008545</ele>
        <time>2011-03-24T16:07:58Z</time>
      </trkpt>
      <trkpt lat="47.2117" lon="5.67408">
        <ele>229.892334</ele>
        <time>2011-03-24T16:08:22Z</time>
      </trkpt>
      <trkpt lat="47.2115" lon="5.67398">
        <ele>232.295776</ele>
        <time>2011-03-24T16:08:42Z</time>
      </trkpt>
      <trkpt lat="47.21135" lon="5.6739">
        <ele>235.179688</ele>
        <time>2011-03-24T16:09:00Z</time>
      </trkpt>
      <trkpt lat="47.21134" lon="5.6739">
        <ele>235.179688</ele>
        <time>2011-03-24T16:09:01Z</time>
      </trkpt>
      <trkpt lat="47.21126" lon="5.67388">
        <ele>236.621704</ele>
        <time>2011-03-24T16:09:11Z</time>
      </trkpt>
      <trkpt lat="47.21113" lon="5.6738">
        <ele>238.544312</ele>
        <time>2011-03-24T16:09:25Z</time>
      </trkpt>
      <trkpt lat="47.21097" lon="5.67369">
        <ele>240.467041</ele>
        <time>2011-03-24T16:09:40Z</time>
      </trkpt>
      <trkpt lat="47.21097" lon="5.67368">
        <ele>240.467041</ele>
        <time>2011-03-24T16:09:41Z</time>
      </trkpt>
      <trkpt lat="47.2109" lon="5.67366">
        <ele>240.947632</ele>
        <time>2011-03-24T16:09:46Z</time>
      </trkpt>
      <trkpt lat="47.21075" lon="5.67356">
        <ele>242.389648</ele>
        <time>2011-03-24T16:10:01Z</time>
      </trkpt>
      <trkpt lat="47.21059" lon="5.67341">
        <ele>243.831543</ele>
        <time>2011-03-24T16:10:16Z</time>
      </trkpt>
      <trkpt lat="47.21048" lon="5.67323">
        <ele>244.792847</ele>
        <time>2011-03-24T16:10:29Z</time>
      </trkpt>
      <trkpt lat="47.21023" lon="5.67295">
        <ele>245.75415</ele>
        <time>2011-03-24T16:10:52Z</time>
      </trkpt>
      <trkpt lat="47.20996" lon="5.67261">
        <ele>246.715454</ele>
        <time>2011-03-24T16:11:23Z</time>
      </trkpt>
      <trkpt lat="47.20986" lon="5.67245">
        <ele>246.234863</ele>
        <time>2011-03-24T16:11:39Z</time>
      </trkpt>
      <trkpt lat="47.20965" lon="5.67221">
        <ele>245.75415</ele>
        <time>2011-03-24T16:12:00Z</time>
      </trkpt>
      <trkpt lat="47.2094" lon="5.67185">
        <ele>245.273438</ele>
        <time>2011-03-24T16:12:28Z</time>
      </trkpt>
      <trkpt lat="47.20934" lon="5.67164">
        <ele>244.792847</ele>
        <time>2011-03-24T16:12:42Z</time>
      </trkpt>
      <trkpt lat="47.20935" lon="5.6716">
        <ele>245.273438</ele>
        <time>2011-03-24T16:12:44Z</time>
      </trkpt>
      <trkpt lat="47.20945" lon="5.67124">
        <ele>246.234863</ele>
        <time>2011-03-24T16:13:06Z</time>
      </trkpt>
      <trkpt lat="47.20957" lon="5.6708">
        <ele>248.638184</ele>
        <time>2011-03-24T16:13:35Z</time>
      </trkpt>
      <trkpt lat="47.20963" lon="5.67042">
        <ele>251.041382</ele>
        <time>2011-03-24T16:13:58Z</time>
      </trkpt>
      <trkpt lat="47.20964" lon="5.6703">
        <ele>251.522095</ele>
        <time>2011-03-24T16:14:06Z</time>
      </trkpt>
      <trkpt lat="47.20963" lon="5.67008">
        <ele>252.963989</ele>
        <time>2011-03-24T16:14:23Z</time>
      </trkpt>
      <trkpt lat="47.20959" lon="5.66985">
        <ele>253.925415</ele>
        <time>2011-03-24T16:14:39Z</time>
      </trkpt>
      <trkpt lat="47.20958" lon="5.66967">
        <ele>254.886597</ele>
        <time>2011-03-24T16:14:54Z</time>
      </trkpt>
      <trkpt lat="47.20953" lon="5.66945">
        <ele>255.848022</ele>
        <time>2011-03-24T16:15:10Z</time>
      </trkpt>
      <trkpt lat="47.20954" lon="5.66936">
        <ele>256.328735</ele>
        <time>2011-03-24T16:15:17Z</time>
      </trkpt>
      <trkpt lat="47.20945" lon="5.66911">
        <ele>257.290039</ele>
        <time>2011-03-24T16:15:31Z</time>
      </trkpt>
      <trkpt lat="47.20941" lon="5.66879">
        <ele>257.770752</ele>
        <time>2011-03-24T16:15:51Z</time>
      </trkpt>
      <trkpt lat="47.20939" lon="5.66852">
        <ele>258.731934</ele>
        <time>2011-03-24T16:16:08Z</time>
      </trkpt>
      <trkpt lat="47.20939" lon="5.66828">
        <ele>258.731934</ele>
        <time>2011-03-24T16:16:22Z</time>
      </trkpt>
      <trkpt lat="47.20943" lon="5.66777">
        <ele>259.693359</ele>
        <time>2011-03-24T16:16:48Z</time>
      </trkpt>
      <trkpt lat="47.20948" lon="5.66755">
        <ele>260.17395</ele>
        <time>2011-03-24T16:17:00Z</time>
      </trkpt>
      <trkpt lat="47.20952" lon="5.66741">
        <ele>260.654541</ele>
        <time>2011-03-24T16:17:07Z</time>
      </trkpt>
      <trkpt lat="47.20954" lon="5.66737">
        <ele>260.654541</ele>
        <time>2011-03-24T16:17:09Z</time>
      </trkpt>
      <trkpt lat="47.20967" lon="5.66713">
        <ele>261.615967</ele>
        <time>2011-03-24T16:17:22Z</time>
      </trkpt>
      <trkpt lat="47.20971" lon="5.66706">
        <ele>262.096558</ele>
        <time>2011-03-24T16:17:26Z</time>
      </trkpt>
      <trkpt lat="47.20985" lon="5.66682">
        <ele>263.057861</ele>
        <time>2011-03-24T16:17:40Z</time>
      </trkpt>
      <trkpt lat="47.20996" lon="5.66656">
        <ele>264.019287</ele>
        <time>2011-03-24T16:17:53Z</time>
      </trkpt>
      <trkpt lat="47.20998" lon="5.66644">
        <ele>264.019287</ele>
        <time>2011-03-24T16:18:00Z</time>
      </trkpt>
      <trkpt lat="47.21001" lon="5.66639">
        <ele>264.019287</ele>
        <time>2011-03-24T16:18:02Z</time>
      </trkpt>
      <trkpt lat="47.21008" lon="5.66611">
        <ele>264.980591</ele>
        <time>2011-03-24T16:18:16Z</time>
      </trkpt>
      <trkpt lat="47.21014" lon="5.66607">
        <ele>264.980591</ele>
        <time>2011-03-24T16:18:21Z</time>
      </trkpt>
      <trkpt lat="47.21017" lon="5.66602">
        <ele>264.980591</ele>
        <time>2011-03-24T16:18:25Z</time>
      </trkpt>
      <trkpt lat="47.21025" lon="5.66592">
        <ele>265.461304</ele>
        <time>2011-03-24T16:18:34Z</time>
      </trkpt>
      <trkpt lat="47.21028" lon="5.66581">
        <ele>265.461304</ele>
        <time>2011-03-24T16:18:40Z</time>
      </trkpt>
      <trkpt lat="47.21037" lon="5.66556">
        <ele>266.422485</ele>
        <time>2011-03-24T16:18:57Z</time>
      </trkpt>
      <trkpt lat="47.21046" lon="5.6654">
        <ele>266.903198</ele>
        <time>2011-03-24T16:19:12Z</time>
      </trkpt>
      <trkpt lat="47.21063" lon="5.66504">
        <ele>267.383911</ele>
        <time>2011-03-24T16:19:33Z</time>
      </trkpt>
      <trkpt lat="47.21066" lon="5.66493">
        <ele>267.383911</ele>
        <time>2011-03-24T16:19:39Z</time>
      </trkpt>
      <trkpt lat="47.2108" lon="5.66467">
        <ele>267.864502</ele>
        <time>2011-03-24T16:19:55Z</time>
      </trkpt>
      <trkpt lat="47.21089" lon="5.66441">
        <ele>267.864502</ele>
        <time>2011-03-24T16:20:10Z</time>
      </trkpt>
      <trkpt lat="47.21102" lon="5.66418">
        <ele>267.383911</ele>
        <time>2011-03-24T16:20:25Z</time>
      </trkpt>
      <trkpt lat="47.21109" lon="5.66404">
        <ele>267.383911</ele>
        <time>2011-03-24T16:20:34Z</time>
      </trkpt>
      <trkpt lat="47.21121" lon="5.66362">
        <ele>265.461304</ele>
        <time>2011-03-24T16:20:55Z</time>
      </trkpt>
      <trkpt lat="47.21137" lon="5.66319">
        <ele>263.538574</ele>
        <time>2011-03-24T16:21:19Z</time>
      </trkpt>
      <trkpt lat="47.21151" lon="5.66286">
        <ele>262.096558</ele>
        <time>2011-03-24T16:21:38Z</time>
      </trkpt>
      <trkpt lat="47.21156" lon="5.66272">
        <ele>261.615967</ele>
        <time>2011-03-24T16:21:46Z</time>
      </trkpt>
      <trkpt lat="47.21173" lon="5.6626">
        <ele>261.135254</ele>
        <time>2011-03-24T16:22:03Z</time>
      </trkpt>
      <trkpt lat="47.21181" lon="5.66265">
        <ele>261.135254</ele>
        <time>2011-03-24T16:22:18Z</time>
      </trkpt>
      <trkpt lat="47.21182" lon="5.66265">
        <ele>261.615967</ele>
        <time>2011-03-24T16:23:39Z</time>
      </trkpt>
      <trkpt lat="47.21191" lon="5.66276">
        <ele>262.577148</ele>
        <time>2011-03-24T16:27:57Z</time>
      </trkpt>
      <trkpt lat="47.212" lon="5.66292">
        <ele>264.019287</ele>
        <time>2011-03-24T16:28:18Z</time>
      </trkpt>
      <trkpt lat="47.21199" lon="5.66292">
        <ele>264.019287</ele>
        <time>2011-03-24T16:28:22Z</time>
      </trkpt>
      <trkpt lat="47.21208" lon="5.66305">
        <ele>264.980591</ele>
        <time>2011-03-24T16:28:32Z</time>
      </trkpt>
      <trkpt lat="47.21223" lon="5.66319">
        <ele>265.941895</ele>
        <time>2011-03-24T16:28:46Z</time>
      </trkpt>
      <trkpt lat="47.21232" lon="5.66334">
        <ele>266.903198</ele>
        <time>2011-03-24T16:28:56Z</time>
      </trkpt>
      <trkpt lat="47.21234" lon="5.66337">
        <ele>267.383911</ele>
        <time>2011-03-24T16:28:58Z</time>
      </trkpt>
      <trkpt lat="47.21245" lon="5.66344">
        <ele>267.864502</ele>
        <time>2011-03-24T16:29:06Z</time>
      </trkpt>
      <trkpt lat="47.21263" lon="5.6636">
        <ele>269.306519</ele>
        <time>2011-03-24T16:29:21Z</time>
      </trkpt>
      <trkpt lat="47.21272" lon="5.66378">
        <ele>270.2677</ele>
        <time>2011-03-24T16:29:36Z</time>
      </trkpt>
      <trkpt lat="47.21276" lon="5.66387">
        <ele>270.2677</ele>
        <time>2011-03-24T16:29:42Z</time>
      </trkpt>
      <trkpt lat="47.21276" lon="5.66391">
        <ele>270.748413</ele>
        <time>2011-03-24T16:29:45Z</time>
      </trkpt>
      <trkpt lat="47.21284" lon="5.66406">
        <ele>271.229126</ele>
        <time>2011-03-24T16:29:55Z</time>
      </trkpt>
      <trkpt lat="47.21288" lon="5.6641">
        <ele>271.229126</ele>
        <time>2011-03-24T16:29:59Z</time>
      </trkpt>
      <trkpt lat="47.213" lon="5.66432">
        <ele>272.19043</ele>
        <time>2011-03-24T16:30:12Z</time>
      </trkpt>
      <trkpt lat="47.21302" lon="5.6644">
        <ele>272.19043</ele>
        <time>2011-03-24T16:30:16Z</time>
      </trkpt>
      <trkpt lat="47.21322" lon="5.66466">
        <ele>274.113037</ele>
        <time>2011-03-24T16:30:35Z</time>
      </trkpt>
      <trkpt lat="47.21329" lon="5.66478">
        <ele>275.074463</ele>
        <time>2011-03-24T16:30:43Z</time>
      </trkpt>
      <trkpt lat="47.21339" lon="5.6649">
        <ele>275.555054</ele>
        <time>2011-03-24T16:30:53Z</time>
      </trkpt>
      <trkpt lat="47.21348" lon="5.66512">
        <ele>276.99707</ele>
        <time>2011-03-24T16:31:08Z</time>
      </trkpt>
      <trkpt lat="47.21368" lon="5.66541">
        <ele>279.400269</ele>
        <time>2011-03-24T16:31:31Z</time>
      </trkpt>
      <trkpt lat="47.2138" lon="5.66554">
        <ele>280.361694</ele>
        <time>2011-03-24T16:31:41Z</time>
      </trkpt>
      <trkpt lat="47.2139" lon="5.66577">
        <ele>281.322998</ele>
        <time>2011-03-24T16:31:55Z</time>
      </trkpt>
      <trkpt lat="47.21398" lon="5.66586">
        <ele>282.284302</ele>
        <time>2011-03-24T16:32:03Z</time>
      </trkpt>
      <trkpt lat="47.21404" lon="5.66595">
        <ele>282.765015</ele>
        <time>2011-03-24T16:32:09Z</time>
      </trkpt>
      <trkpt lat="47.21408" lon="5.66601">
        <ele>283.245605</ele>
        <time>2011-03-24T16:32:14Z</time>
      </trkpt>
      <trkpt lat="47.21411" lon="5.66607">
        <ele>283.245605</ele>
        <time>2011-03-24T16:32:18Z</time>
      </trkpt>
      <trkpt lat="47.21412" lon="5.66612">
        <ele>283.726196</ele>
        <time>2011-03-24T16:32:22Z</time>
      </trkpt>
      <trkpt lat="47.21426" lon="5.66628">
        <ele>284.206909</ele>
        <time>2011-03-24T16:32:38Z</time>
      </trkpt>
      <trkpt lat="47.21437" lon="5.66613">
        <ele>285.648804</ele>
        <time>2011-03-24T16:33:00Z</time>
      </trkpt>
      <trkpt lat="47.21449" lon="5.66588">
        <ele>287.571411</ele>
        <time>2011-03-24T16:33:22Z</time>
      </trkpt>
      <trkpt lat="47.21457" lon="5.66568">
        <ele>289.494141</ele>
        <time>2011-03-24T16:33:37Z</time>
      </trkpt>
      <trkpt lat="47.21463" lon="5.66542">
        <ele>291.416748</ele>
        <time>2011-03-24T16:33:54Z</time>
      </trkpt>
      <trkpt lat="47.21474" lon="5.66533">
        <ele>294.781372</ele>
        <time>2011-03-24T16:34:10Z</time>
      </trkpt>
      <trkpt lat="47.21484" lon="5.66523">
        <ele>296.704102</ele>
        <time>2011-03-24T16:34:25Z</time>
      </trkpt>
      <trkpt lat="47.21495" lon="5.66506">
        <ele>299.1073</ele>
        <time>2011-03-24T16:34:45Z</time>
      </trkpt>
      <trkpt lat="47.21509" lon="5.66506">
        <ele>301.991333</ele>
        <time>2011-03-24T16:35:02Z</time>
      </trkpt>
      <trkpt lat="47.21529" lon="5.66498">
        <ele>303.91394</ele>
        <time>2011-03-24T16:35:20Z</time>
      </trkpt>
      <trkpt lat="47.21541" lon="5.66477">
        <ele>306.317261</ele>
        <time>2011-03-24T16:35:40Z</time>
      </trkpt>
      <trkpt lat="47.2155" lon="5.66462">
        <ele>309.201172</ele>
        <time>2011-03-24T16:36:01Z</time>
      </trkpt>
      <trkpt lat="47.21562" lon="5.6644">
        <ele>311.123779</ele>
        <time>2011-03-24T16:36:20Z</time>
      </trkpt>
      <trkpt lat="47.21568" lon="5.66433">
        <ele>312.085205</ele>
        <time>2011-03-24T16:36:38Z</time>
      </trkpt>
      <trkpt lat="47.21576" lon="5.6642">
        <ele>314.007813</ele>
        <time>2011-03-24T16:36:52Z</time>
      </trkpt>
      <trkpt lat="47.21586" lon="5.66412">
        <ele>314.969116</ele>
        <time>2011-03-24T16:37:00Z</time>
      </trkpt>
      <trkpt lat="47.21587" lon="5.66407">
        <ele>315.449829</ele>
        <time>2011-03-24T16:37:04Z</time>
      </trkpt>
      <trkpt lat="47.21595" lon="5.66386">
        <ele>316.891724</ele>
        <time>2011-03-24T16:37:21Z</time>
      </trkpt>
      <trkpt lat="47.21595" lon="5.66376">
        <ele>317.372437</ele>
        <time>2011-03-24T16:37:30Z</time>
      </trkpt>
      <trkpt lat="47.21601" lon="5.66358">
        <ele>318.333618</ele>
        <time>2011-03-24T16:37:42Z</time>
      </trkpt>
      <trkpt lat="47.21611" lon="5.66354">
        <ele>319.775635</ele>
        <time>2011-03-24T16:37:51Z</time>
      </trkpt>
      <trkpt lat="47.21615" lon="5.66351">
        <ele>319.775635</ele>
        <time>2011-03-24T16:37:54Z</time>
      </trkpt>
      <trkpt lat="47.21623" lon="5.6634">
        <ele>320.737061</ele>
        <time>2011-03-24T16:38:08Z</time>
      </trkpt>
      <trkpt lat="47.21635" lon="5.66327">
        <ele>322.178955</ele>
        <time>2011-03-24T16:38:22Z</time>
      </trkpt>
      <trkpt lat="47.21636" lon="5.66325">
        <ele>322.178955</ele>
        <time>2011-03-24T16:38:24Z</time>
      </trkpt>
      <trkpt lat="47.21643" lon="5.66318">
        <ele>322.659668</ele>
        <time>2011-03-24T16:38:31Z</time>
      </trkpt>
      <trkpt lat="47.21646" lon="5.66315">
        <ele>322.659668</ele>
        <time>2011-03-24T16:38:33Z</time>
      </trkpt>
      <trkpt lat="47.21651" lon="5.66289">
        <ele>322.659668</ele>
        <time>2011-03-24T16:38:49Z</time>
      </trkpt>
      <trkpt lat="47.21653" lon="5.66272">
        <ele>322.659668</ele>
        <time>2011-03-24T16:39:00Z</time>
      </trkpt>
      <trkpt lat="47.21672" lon="5.66256">
        <ele>322.659668</ele>
        <time>2011-03-24T16:39:18Z</time>
      </trkpt>
      <trkpt lat="47.21683" lon="5.66253">
        <ele>322.659668</ele>
        <time>2011-03-24T16:39:32Z</time>
      </trkpt>
      <trkpt lat="47.21686" lon="5.66245">
        <ele>322.178955</ele>
        <time>2011-03-24T16:39:42Z</time>
      </trkpt>
      <trkpt lat="47.21695" lon="5.6623">
        <ele>321.217773</ele>
        <time>2011-03-24T16:39:57Z</time>
      </trkpt>
      <trkpt lat="47.21697" lon="5.66225">
        <ele>321.217773</ele>
        <time>2011-03-24T16:40:00Z</time>
      </trkpt>
      <trkpt lat="47.21701" lon="5.66212">
        <ele>320.256348</ele>
        <time>2011-03-24T16:40:09Z</time>
      </trkpt>
      <trkpt lat="47.21707" lon="5.66202">
        <ele>319.295044</ele>
        <time>2011-03-24T16:40:17Z</time>
      </trkpt>
      <trkpt lat="47.21715" lon="5.66189">
        <ele>318.333618</ele>
        <time>2011-03-24T16:40:29Z</time>
      </trkpt>
      <trkpt lat="47.21721" lon="5.66182">
        <ele>317.853027</ele>
        <time>2011-03-24T16:40:36Z</time>
      </trkpt>
      <trkpt lat="47.21724" lon="5.66175">
        <ele>317.372437</ele>
        <time>2011-03-24T16:40:40Z</time>
      </trkpt>
      <trkpt lat="47.21729" lon="5.66163">
        <ele>316.891724</ele>
        <time>2011-03-24T16:40:49Z</time>
      </trkpt>
      <trkpt lat="47.21735" lon="5.66137">
        <ele>315.93042</ele>
        <time>2011-03-24T16:41:05Z</time>
      </trkpt>
      <trkpt lat="47.21736" lon="5.66121">
        <ele>315.449829</ele>
        <time>2011-03-24T16:41:15Z</time>
      </trkpt>
      <trkpt lat="47.21741" lon="5.66094">
        <ele>314.007813</ele>
        <time>2011-03-24T16:41:34Z</time>
      </trkpt>
      <trkpt lat="47.21746" lon="5.66075">
        <ele>312.085205</ele>
        <time>2011-03-24T16:41:52Z</time>
      </trkpt>
      <trkpt lat="47.21745" lon="5.66063">
        <ele>311.604492</ele>
        <time>2011-03-24T16:41:59Z</time>
      </trkpt>
      <trkpt lat="47.21747" lon="5.66044">
        <ele>310.162476</ele>
        <time>2011-03-24T16:42:10Z</time>
      </trkpt>
      <trkpt lat="47.21747" lon="5.66041">
        <ele>310.162476</ele>
        <time>2011-03-24T16:42:12Z</time>
      </trkpt>
      <trkpt lat="47.21747" lon="5.66028">
        <ele>309.681885</ele>
        <time>2011-03-24T16:42:24Z</time>
      </trkpt>
      <trkpt lat="47.21752" lon="5.66023">
        <ele>309.681885</ele>
        <time>2011-03-24T16:42:40Z</time>
      </trkpt>
      <trkpt lat="47.21758" lon="5.66027">
        <ele>310.162476</ele>
        <time>2011-03-24T16:42:49Z</time>
      </trkpt>
      <trkpt lat="47.21777" lon="5.66038">
        <ele>312.565796</ele>
        <time>2011-03-24T16:43:06Z</time>
      </trkpt>
      <trkpt lat="47.21779" lon="5.66038">
        <ele>312.565796</ele>
        <time>2011-03-24T16:43:08Z</time>
      </trkpt>
      <trkpt lat="47.21795" lon="5.66032">
        <ele>313.046509</ele>
        <time>2011-03-24T16:43:21Z</time>
      </trkpt>
      <trkpt lat="47.21806" lon="5.66006">
        <ele>311.604492</ele>
        <time>2011-03-24T16:43:39Z</time>
      </trkpt>
      <trkpt lat="47.21808" lon="5.65999">
        <ele>311.604492</ele>
        <time>2011-03-24T16:43:44Z</time>
      </trkpt>
      <trkpt lat="47.21811" lon="5.65992">
        <ele>311.123779</ele>
        <time>2011-03-24T16:43:50Z</time>
      </trkpt>
      <trkpt lat="47.2182" lon="5.65982">
        <ele>310.162476</ele>
        <time>2011-03-24T16:43:57Z</time>
      </trkpt>
      <trkpt lat="47.21823" lon="5.65975">
        <ele>309.681885</ele>
        <time>2011-03-24T16:44:03Z</time>
      </trkpt>
      <trkpt lat="47.21826" lon="5.65967">
        <ele>309.201172</ele>
        <time>2011-03-24T16:44:08Z</time>
      </trkpt>
      <trkpt lat="47.21829" lon="5.6594">
        <ele>307.278564</ele>
        <time>2011-03-24T16:44:26Z</time>
      </trkpt>
      <trkpt lat="47.21843" lon="5.65921">
        <ele>306.317261</ele>
        <time>2011-03-24T16:44:42Z</time>
      </trkpt>
      <trkpt lat="47.21856" lon="5.65896">
        <ele>304.875244</ele>
        <time>2011-03-24T16:44:59Z</time>
      </trkpt>
      <trkpt lat="47.21858" lon="5.65894">
        <ele>304.875244</ele>
        <time>2011-03-24T16:45:00Z</time>
      </trkpt>
      <trkpt lat="47.21859" lon="5.65888">
        <ele>304.394653</ele>
        <time>2011-03-24T16:45:04Z</time>
      </trkpt>
      <trkpt lat="47.21862" lon="5.65882">
        <ele>303.91394</ele>
        <time>2011-03-24T16:45:08Z</time>
      </trkpt>
      <trkpt lat="47.21864" lon="5.65875">
        <ele>303.91394</ele>
        <time>2011-03-24T16:45:12Z</time>
      </trkpt>
      <trkpt lat="47.21867" lon="5.65867">
        <ele>302.952515</ele>
        <time>2011-03-24T16:45:19Z</time>
      </trkpt>
      <trkpt lat="47.21879" lon="5.65841">
        <ele>301.51062</ele>
        <time>2011-03-24T16:45:34Z</time>
      </trkpt>
      <trkpt lat="47.21902" lon="5.6584">
        <ele>300.068726</ele>
        <time>2011-03-24T16:45:52Z</time>
      </trkpt>
      <trkpt lat="47.2191" lon="5.65843">
        <ele>300.068726</ele>
        <time>2011-03-24T16:45:57Z</time>
      </trkpt>
      <trkpt lat="47.21916" lon="5.65846">
        <ele>300.549316</ele>
        <time>2011-03-24T16:46:04Z</time>
      </trkpt>
      <trkpt lat="47.21926" lon="5.65854">
        <ele>301.029907</ele>
        <time>2011-03-24T16:46:15Z</time>
      </trkpt>
      <trkpt lat="47.21945" lon="5.65868">
        <ele>301.991333</ele>
        <time>2011-03-24T16:46:32Z</time>
      </trkpt>
      <trkpt lat="47.21957" lon="5.65885">
        <ele>303.433228</ele>
        <time>2011-03-24T16:46:46Z</time>
      </trkpt>
      <trkpt lat="47.21979" lon="5.65904">
        <ele>304.394653</ele>
        <time>2011-03-24T16:47:04Z</time>
      </trkpt>
      <trkpt lat="47.21991" lon="5.65911">
        <ele>305.355957</ele>
        <time>2011-03-24T16:47:20Z</time>
      </trkpt>
      <trkpt lat="47.2201" lon="5.65924">
        <ele>306.317261</ele>
        <time>2011-03-24T16:47:36Z</time>
      </trkpt>
      <trkpt lat="47.22013" lon="5.65941">
        <ele>307.759277</ele>
        <time>2011-03-24T16:47:47Z</time>
      </trkpt>
      <trkpt lat="47.22019" lon="5.65965">
        <ele>309.681885</ele>
        <time>2011-03-24T16:48:06Z</time>
      </trkpt>
      <trkpt lat="47.22025" lon="5.6598">
        <ele>311.604492</ele>
        <time>2011-03-24T16:48:18Z</time>
      </trkpt>
      <trkpt lat="47.22032" lon="5.65993">
        <ele>312.565796</ele>
        <time>2011-03-24T16:48:34Z</time>
      </trkpt>
      <trkpt lat="47.22032" lon="5.65997">
        <ele>313.046509</ele>
        <time>2011-03-24T16:49:08Z</time>
      </trkpt>
      <trkpt lat="47.22038" lon="5.66002">
        <ele>313.046509</ele>
        <time>2011-03-24T16:55:46Z</time>
      </trkpt>
      <trkpt lat="47.22048" lon="5.66004">
        <ele>313.046509</ele>
        <time>2011-03-24T16:56:01Z</time>
      </trkpt>
      <trkpt lat="47.22058" lon="5.66001">
        <ele>313.046509</ele>
        <time>2011-03-24T16:56:14Z</time>
      </trkpt>
      <trkpt lat="47.22073" lon="5.65994">
        <ele>312.565796</ele>
        <time>2011-03-24T16:56:29Z</time>
      </trkpt>
      <trkpt lat="47.22082" lon="5.65982">
        <ele>311.604492</ele>
        <time>2011-03-24T16:56:37Z</time>
      </trkpt>
      <trkpt lat="47.22083" lon="5.6598">
        <ele>311.604492</ele>
        <time>2011-03-24T16:56:39Z</time>
      </trkpt>
      <trkpt lat="47.22088" lon="5.65975">
        <ele>310.643066</ele>
        <time>2011-03-24T16:56:44Z</time>
      </trkpt>
      <trkpt lat="47.22094" lon="5.65959">
        <ele>309.681885</ele>
        <time>2011-03-24T16:56:56Z</time>
      </trkpt>
      <trkpt lat="47.22097" lon="5.65952">
        <ele>308.720459</ele>
        <time>2011-03-24T16:57:01Z</time>
      </trkpt>
      <trkpt lat="47.22102" lon="5.65926">
        <ele>306.317261</ele>
        <time>2011-03-24T16:57:20Z</time>
      </trkpt>
      <trkpt lat="47.22109" lon="5.65903">
        <ele>303.91394</ele>
        <time>2011-03-24T16:57:35Z</time>
      </trkpt>
      <trkpt lat="47.22108" lon="5.659">
        <ele>303.91394</ele>
        <time>2011-03-24T16:57:37Z</time>
      </trkpt>
      <trkpt lat="47.22105" lon="5.65875">
        <ele>301.991333</ele>
        <time>2011-03-24T16:57:51Z</time>
      </trkpt>
      <trkpt lat="47.22105" lon="5.65873">
        <ele>301.51062</ele>
        <time>2011-03-24T16:57:54Z</time>
      </trkpt>
      <trkpt lat="47.22091" lon="5.65854">
        <ele>300.068726</ele>
        <time>2011-03-24T16:58:10Z</time>
      </trkpt>
      <trkpt lat="47.2209" lon="5.65852">
        <ele>300.068726</ele>
        <time>2011-03-24T16:58:11Z</time>
      </trkpt>
      <trkpt lat="47.22084" lon="5.65843">
        <ele>299.1073</ele>
        <time>2011-03-24T16:58:17Z</time>
      </trkpt>
      <trkpt lat="47.2207" lon="5.65822">
        <ele>297.184692</ele>
        <time>2011-03-24T16:58:34Z</time>
      </trkpt>
      <trkpt lat="47.22063" lon="5.65795">
        <ele>295.261963</ele>
        <time>2011-03-24T16:58:50Z</time>
      </trkpt>
      <trkpt lat="47.22066" lon="5.65781">
        <ele>294.300781</ele>
        <time>2011-03-24T16:59:00Z</time>
      </trkpt>
      <trkpt lat="47.22069" lon="5.65755">
        <ele>291.897461</ele>
        <time>2011-03-24T16:59:13Z</time>
      </trkpt>
      <trkpt lat="47.22071" lon="5.65751">
        <ele>291.416748</ele>
        <time>2011-03-24T16:59:15Z</time>
      </trkpt>
      <trkpt lat="47.22082" lon="5.65737">
        <ele>290.936157</ele>
        <time>2011-03-24T16:59:24Z</time>
      </trkpt>
      <trkpt lat="47.22092" lon="5.65711">
        <ele>291.897461</ele>
        <time>2011-03-24T16:59:41Z</time>
      </trkpt>
      <trkpt lat="47.22103" lon="5.65687">
        <ele>291.897461</ele>
        <time>2011-03-24T16:59:58Z</time>
      </trkpt>
      <trkpt lat="47.22118" lon="5.65661">
        <ele>291.897461</ele>
        <time>2011-03-24T17:00:17Z</time>
      </trkpt>
      <trkpt lat="47.22119" lon="5.65658">
        <ele>292.378174</ele>
        <time>2011-03-24T17:00:19Z</time>
      </trkpt>
      <trkpt lat="47.22131" lon="5.65639">
        <ele>292.858765</ele>
        <time>2011-03-24T17:00:35Z</time>
      </trkpt>
      <trkpt lat="47.2216" lon="5.65641">
        <ele>295.742676</ele>
        <time>2011-03-24T17:00:57Z</time>
      </trkpt>
      <trkpt lat="47.22181" lon="5.65653">
        <ele>298.626709</ele>
        <time>2011-03-24T17:01:20Z</time>
      </trkpt>
      <trkpt lat="47.22196" lon="5.6567">
        <ele>300.549316</ele>
        <time>2011-03-24T17:01:39Z</time>
      </trkpt>
      <trkpt lat="47.22212" lon="5.65678">
        <ele>302.952515</ele>
        <time>2011-03-24T17:01:58Z</time>
      </trkpt>
      <trkpt lat="47.22223" lon="5.65671">
        <ele>303.91394</ele>
        <time>2011-03-24T17:02:19Z</time>
      </trkpt>
      <trkpt lat="47.22239" lon="5.65653">
        <ele>304.394653</ele>
        <time>2011-03-24T17:02:37Z</time>
      </trkpt>
      <trkpt lat="47.22246" lon="5.6565">
        <ele>304.394653</ele>
        <time>2011-03-24T17:02:41Z</time>
      </trkpt>
      <trkpt lat="47.22263" lon="5.65659">
        <ele>306.317261</ele>
        <time>2011-03-24T17:02:56Z</time>
      </trkpt>
      <trkpt lat="47.22278" lon="5.65668">
        <ele>307.759277</ele>
        <time>2011-03-24T17:03:11Z</time>
      </trkpt>
      <trkpt lat="47.22288" lon="5.65682">
        <ele>308.720459</ele>
        <time>2011-03-24T17:03:24Z</time>
      </trkpt>
      <trkpt lat="47.22305" lon="5.65698">
        <ele>309.681885</ele>
        <time>2011-03-24T17:03:43Z</time>
      </trkpt>
      <trkpt lat="47.22318" lon="5.65712">
        <ele>311.123779</ele>
        <time>2011-03-24T17:03:58Z</time>
      </trkpt>
      <trkpt lat="47.22339" lon="5.65733">
        <ele>312.565796</ele>
        <time>2011-03-24T17:04:19Z</time>
      </trkpt>
      <trkpt lat="47.22354" lon="5.65749">
        <ele>313.527222</ele>
        <time>2011-03-24T17:04:38Z</time>
      </trkpt>
      <trkpt lat="47.22374" lon="5.65763">
        <ele>314.007813</ele>
        <time>2011-03-24T17:05:01Z</time>
      </trkpt>
      <trkpt lat="47.22388" lon="5.65756">
        <ele>312.565796</ele>
        <time>2011-03-24T17:05:14Z</time>
      </trkpt>
      <trkpt lat="47.224" lon="5.65736">
        <ele>310.643066</ele>
        <time>2011-03-24T17:05:32Z</time>
      </trkpt>
      <trkpt lat="47.2241" lon="5.65718">
        <ele>308.720459</ele>
        <time>2011-03-24T17:05:45Z</time>
      </trkpt>
      <trkpt lat="47.22425" lon="5.65695">
        <ele>307.278564</ele>
        <time>2011-03-24T17:06:05Z</time>
      </trkpt>
      <trkpt lat="47.22435" lon="5.65676">
        <ele>304.875244</ele>
        <time>2011-03-24T17:06:22Z</time>
      </trkpt>
      <trkpt lat="47.22449" lon="5.6565">
        <ele>302.471924</ele>
        <time>2011-03-24T17:06:40Z</time>
      </trkpt>
      <trkpt lat="47.22459" lon="5.65631">
        <ele>300.549316</ele>
        <time>2011-03-24T17:06:56Z</time>
      </trkpt>
      <trkpt lat="47.2247" lon="5.65606">
        <ele>297.665405</ele>
        <time>2011-03-24T17:07:14Z</time>
      </trkpt>
      <trkpt lat="47.2248" lon="5.65585">
        <ele>295.261963</ele>
        <time>2011-03-24T17:07:30Z</time>
      </trkpt>
      <trkpt lat="47.22487" lon="5.65567">
        <ele>292.378174</ele>
        <time>2011-03-24T17:07:42Z</time>
      </trkpt>
      <trkpt lat="47.22499" lon="5.65541">
        <ele>293.339355</ele>
        <time>2011-03-24T17:08:00Z</time>
      </trkpt>
      <trkpt lat="47.22503" lon="5.65527">
        <ele>295.261963</ele>
        <time>2011-03-24T17:08:08Z</time>
      </trkpt>
      <trkpt lat="47.22505" lon="5.65521">
        <ele>295.261963</ele>
        <time>2011-03-24T17:08:12Z</time>
      </trkpt>
      <trkpt lat="47.22511" lon="5.65506">
        <ele>297.665405</ele>
        <time>2011-03-24T17:08:24Z</time>
      </trkpt>
      <trkpt lat="47.22524" lon="5.65477">
        <ele>299.588013</ele>
        <time>2011-03-24T17:08:44Z</time>
      </trkpt>
      <trkpt lat="47.22536" lon="5.65454">
        <ele>301.51062</ele>
        <time>2011-03-24T17:08:59Z</time>
      </trkpt>
      <trkpt lat="47.22538" lon="5.65451">
        <ele>301.51062</ele>
        <time>2011-03-24T17:09:02Z</time>
      </trkpt>
      <trkpt lat="47.2254" lon="5.65444">
        <ele>301.991333</ele>
        <time>2011-03-24T17:09:06Z</time>
      </trkpt>
      <trkpt lat="47.22548" lon="5.65427">
        <ele>302.471924</ele>
        <time>2011-03-24T17:09:18Z</time>
      </trkpt>
      <trkpt lat="47.22562" lon="5.65398">
        <ele>304.394653</ele>
        <time>2011-03-24T17:09:40Z</time>
      </trkpt>
      <trkpt lat="47.22565" lon="5.65394">
        <ele>304.875244</ele>
        <time>2011-03-24T17:09:43Z</time>
      </trkpt>
      <trkpt lat="47.22578" lon="5.65361">
        <ele>305.83667</ele>
        <time>2011-03-24T17:10:04Z</time>
      </trkpt>
      <trkpt lat="47.22586" lon="5.65339">
        <ele>305.83667</ele>
        <time>2011-03-24T17:10:18Z</time>
      </trkpt>
      <trkpt lat="47.22586" lon="5.65337">
        <ele>305.83667</ele>
        <time>2011-03-24T17:10:20Z</time>
      </trkpt>
      <trkpt lat="47.22587" lon="5.65333">
        <ele>305.83667</ele>
        <time>2011-03-24T17:10:22Z</time>
      </trkpt>
      <trkpt lat="47.22574" lon="5.65314">
        <ele>305.355957</ele>
        <time>2011-03-24T17:10:38Z</time>
      </trkpt>
      <trkpt lat="47.2256" lon="5.65293">
        <ele>304.394653</ele>
        <time>2011-03-24T17:10:54Z</time>
      </trkpt>
      <trkpt lat="47.22554" lon="5.65287">
        <ele>304.394653</ele>
        <time>2011-03-24T17:10:59Z</time>
      </trkpt>
      <trkpt lat="47.2255" lon="5.65283">
        <ele>303.91394</ele>
        <time>2011-03-24T17:11:03Z</time>
      </trkpt>
      <trkpt lat="47.22541" lon="5.65263">
        <ele>303.433228</ele>
        <time>2011-03-24T17:11:18Z</time>
      </trkpt>
      <trkpt lat="47.22532" lon="5.65249">
        <ele>302.952515</ele>
        <time>2011-03-24T17:11:32Z</time>
      </trkpt>
      <trkpt lat="47.22518" lon="5.65225">
        <ele>301.991333</ele>
        <time>2011-03-24T17:11:50Z</time>
      </trkpt>
      <trkpt lat="47.22501" lon="5.65198">
        <ele>300.068726</ele>
        <time>2011-03-24T17:12:11Z</time>
      </trkpt>
      <trkpt lat="47.2248" lon="5.65181">
        <ele>298.626709</ele>
        <time>2011-03-24T17:12:30Z</time>
      </trkpt>
      <trkpt lat="47.22455" lon="5.65162">
        <ele>296.704102</ele>
        <time>2011-03-24T17:12:49Z</time>
      </trkpt>
      <trkpt lat="47.22431" lon="5.65142">
        <ele>294.781372</ele>
        <time>2011-03-24T17:13:10Z</time>
      </trkpt>
      <trkpt lat="47.22412" lon="5.65128">
        <ele>292.858765</ele>
        <time>2011-03-24T17:13:26Z</time>
      </trkpt>
      <trkpt lat="47.22391" lon="5.65114">
        <ele>290.936157</ele>
        <time>2011-03-24T17:13:44Z</time>
      </trkpt>
      <trkpt lat="47.2237" lon="5.65097">
        <ele>289.01355</ele>
        <time>2011-03-24T17:14:01Z</time>
      </trkpt>
      <trkpt lat="47.22351" lon="5.65078">
        <ele>286.610229</ele>
        <time>2011-03-24T17:14:17Z</time>
      </trkpt>
      <trkpt lat="47.22331" lon="5.65058">
        <ele>284.687622</ele>
        <time>2011-03-24T17:14:35Z</time>
      </trkpt>
      <trkpt lat="47.22304" lon="5.65029">
        <ele>281.322998</ele>
        <time>2011-03-24T17:14:59Z</time>
      </trkpt>
      <trkpt lat="47.2228" lon="5.65002">
        <ele>278.919678</ele>
        <time>2011-03-24T17:15:22Z</time>
      </trkpt>
      <trkpt lat="47.22265" lon="5.64974">
        <ele>276.516357</ele>
        <time>2011-03-24T17:15:42Z</time>
      </trkpt>
      <trkpt lat="47.22249" lon="5.6494">
        <ele>274.59375</ele>
        <time>2011-03-24T17:16:04Z</time>
      </trkpt>
      <trkpt lat="47.22236" lon="5.64904">
        <ele>272.671143</ele>
        <time>2011-03-24T17:16:25Z</time>
      </trkpt>
      <trkpt lat="47.22231" lon="5.64881">
        <ele>271.229126</ele>
        <time>2011-03-24T17:16:38Z</time>
      </trkpt>
      <trkpt lat="47.22224" lon="5.64856">
        <ele>269.787109</ele>
        <time>2011-03-24T17:16:53Z</time>
      </trkpt>
      <trkpt lat="47.22217" lon="5.64837">
        <ele>268.345093</ele>
        <time>2011-03-24T17:17:04Z</time>
      </trkpt>
      <trkpt lat="47.22207" lon="5.64819">
        <ele>266.903198</ele>
        <time>2011-03-24T17:17:18Z</time>
      </trkpt>
      <trkpt lat="47.22195" lon="5.64798">
        <ele>264.980591</ele>
        <time>2011-03-24T17:17:32Z</time>
      </trkpt>
      <trkpt lat="47.22179" lon="5.64773">
        <ele>262.096558</ele>
        <time>2011-03-24T17:17:50Z</time>
      </trkpt>
      <trkpt lat="47.2217" lon="5.64749">
        <ele>260.17395</ele>
        <time>2011-03-24T17:18:06Z</time>
      </trkpt>
      <trkpt lat="47.2216" lon="5.64729">
        <ele>258.251343</ele>
        <time>2011-03-24T17:18:21Z</time>
      </trkpt>
      <trkpt lat="47.22148" lon="5.647">
        <ele>256.809326</ele>
        <time>2011-03-24T17:18:38Z</time>
      </trkpt>
      <trkpt lat="47.22137" lon="5.64674">
        <ele>255.36731</ele>
        <time>2011-03-24T17:18:59Z</time>
      </trkpt>
      <trkpt lat="47.22127" lon="5.64649">
        <ele>254.886597</ele>
        <time>2011-03-24T17:19:15Z</time>
      </trkpt>
      <trkpt lat="47.22113" lon="5.64614">
        <ele>253.444702</ele>
        <time>2011-03-24T17:19:36Z</time>
      </trkpt>
      <trkpt lat="47.22101" lon="5.6459">
        <ele>252.002808</ele>
        <time>2011-03-24T17:19:52Z</time>
      </trkpt>
      <trkpt lat="47.22087" lon="5.64555">
        <ele>251.041382</ele>
        <time>2011-03-24T17:20:12Z</time>
      </trkpt>
      <trkpt lat="47.22074" lon="5.64523">
        <ele>250.560791</ele>
        <time>2011-03-24T17:20:33Z</time>
      </trkpt>
      <trkpt lat="47.22057" lon="5.64486">
        <ele>249.599487</ele>
        <time>2011-03-24T17:20:57Z</time>
      </trkpt>
      <trkpt lat="47.22036" lon="5.64452">
        <ele>249.599487</ele>
        <time>2011-03-24T17:21:20Z</time>
      </trkpt>
      <trkpt lat="47.22021" lon="5.64439">
        <ele>249.599487</ele>
        <time>2011-03-24T17:21:33Z</time>
      </trkpt>
      <trkpt lat="47.22006" lon="5.64429">
        <ele>249.118774</ele>
        <time>2011-03-24T17:21:46Z</time>
      </trkpt>
      <trkpt lat="47.21988" lon="5.64409">
        <ele>248.157593</ele>
        <time>2011-03-24T17:22:02Z</time>
      </trkpt>
      <trkpt lat="47.21979" lon="5.64389">
        <ele>247.676758</ele>
        <time>2011-03-24T17:22:15Z</time>
      </trkpt>
      <trkpt lat="47.2197" lon="5.64358">
        <ele>246.715454</ele>
        <time>2011-03-24T17:22:31Z</time>
      </trkpt>
      <trkpt lat="47.21968" lon="5.64327">
        <ele>245.273438</ele>
        <time>2011-03-24T17:22:47Z</time>
      </trkpt>
      <trkpt lat="47.21969" lon="5.643">
        <ele>244.312256</ele>
        <time>2011-03-24T17:23:02Z</time>
      </trkpt>
      <trkpt lat="47.21967" lon="5.64262">
        <ele>243.35083</ele>
        <time>2011-03-24T17:23:19Z</time>
      </trkpt>
      <trkpt lat="47.21964" lon="5.64228">
        <ele>241.908936</ele>
        <time>2011-03-24T17:23:34Z</time>
      </trkpt>
      <trkpt lat="47.21964" lon="5.64197">
        <ele>239.986206</ele>
        <time>2011-03-24T17:23:48Z</time>
      </trkpt>
      <trkpt lat="47.21965" lon="5.64194">
        <ele>239.505493</ele>
        <time>2011-03-24T17:23:51Z</time>
      </trkpt>
      <trkpt lat="47.21964" lon="5.64181">
        <ele>239.024902</ele>
        <time>2011-03-24T17:23:58Z</time>
      </trkpt>
      <trkpt lat="47.21959" lon="5.64144">
        <ele>236.621704</ele>
        <time>2011-03-24T17:24:16Z</time>
      </trkpt>
      <trkpt lat="47.2196" lon="5.64135">
        <ele>235.660278</ele>
        <time>2011-03-24T17:24:22Z</time>
      </trkpt>
      <trkpt lat="47.21962" lon="5.6413">
        <ele>235.179688</ele>
        <time>2011-03-24T17:24:27Z</time>
      </trkpt>
      <trkpt lat="47.21963" lon="5.64124">
        <ele>234.699097</ele>
        <time>2011-03-24T17:24:29Z</time>
      </trkpt>
      <trkpt lat="47.21965" lon="5.64117">
        <ele>233.737671</ele>
        <time>2011-03-24T17:24:33Z</time>
      </trkpt>
      <trkpt lat="47.21962" lon="5.6409">
        <ele>233.25708</ele>
        <time>2011-03-24T17:24:45Z</time>
      </trkpt>
      <trkpt lat="47.21957" lon="5.64082">
        <ele>232.295776</ele>
        <time>2011-03-24T17:24:51Z</time>
      </trkpt>
      <trkpt lat="47.21947" lon="5.64075">
        <ele>231.814941</ele>
        <time>2011-03-24T17:24:59Z</time>
      </trkpt>
      <trkpt lat="47.21937" lon="5.64067">
        <ele>231.334351</ele>
        <time>2011-03-24T17:25:22Z</time>
      </trkpt>
      <trkpt lat="47.21937" lon="5.64067">
        <ele>231.334351</ele>
        <time>2011-03-24T17:25:26Z</time>
      </trkpt>
    </trkseg>
  </trk>
</gpx>